<?xml version="1.0" encoding="UTF-8" standalone="no" ?>
<gpx xmlns="http://www.topografix.com/GPX/1/1" xmlns:xsi="http://www.w3.org/2001/XMLSchema-instance" xsi:schemaLocation="http://www.topografix.com/GPX/1/1 http://www.topografix.com/GPX/1/1/gpx.xsd" version="1.1" creator="VisuGPX - https://www.visugpx.com">
  <metadata>
    <name>le montaiguet et la grotte de l'ermite</name>
    <desc><![CDATA[Boucle de 15 km, dénivelé cumulé 280 m au départ du Parking du Val de l'Arc à Aix]]></desc>
  </metadata>
  <trk>
    <name><![CDATA[le montaiguet et la grotte de l'ermite]]></name>
    <trkseg>
      <trkpt lat="43.50862" lon="5.46637">
        <ele>158</ele>
        <time>2021-11-17T08:54:03Z</time>
      </trkpt>
      <trkpt lat="43.50862" lon="5.46637">
        <ele>158</ele>
        <time>2021-11-17T08:54:04Z</time>
      </trkpt>
      <trkpt lat="43.50871" lon="5.46635">
        <ele>122</ele>
        <time>2021-11-17T08:54:06Z</time>
      </trkpt>
      <trkpt lat="43.50873" lon="5.46643">
        <ele>147</ele>
        <time>2021-11-17T08:54:08Z</time>
      </trkpt>
      <trkpt lat="43.50866" lon="5.46655">
        <ele>141</ele>
        <time>2021-11-17T08:54:18Z</time>
      </trkpt>
      <trkpt lat="43.50873" lon="5.46679">
        <ele>142</ele>
        <time>2021-11-17T08:54:45Z</time>
      </trkpt>
      <trkpt lat="43.50884" lon="5.46716">
        <ele>142</ele>
        <time>2021-11-17T08:55:10Z</time>
      </trkpt>
      <trkpt lat="43.50885" lon="5.46729">
        <ele>142</ele>
        <time>2021-11-17T08:55:22Z</time>
      </trkpt>
      <trkpt lat="43.50883" lon="5.46741">
        <ele>142</ele>
        <time>2021-11-17T08:55:29Z</time>
      </trkpt>
      <trkpt lat="43.50882" lon="5.46754">
        <ele>142</ele>
        <time>2021-11-17T08:55:42Z</time>
      </trkpt>
      <trkpt lat="43.50877" lon="5.46765">
        <ele>142</ele>
        <time>2021-11-17T08:55:50Z</time>
      </trkpt>
      <trkpt lat="43.50868" lon="5.46767">
        <ele>141</ele>
        <time>2021-11-17T08:56:05Z</time>
      </trkpt>
      <trkpt lat="43.50852" lon="5.46782">
        <ele>141</ele>
        <time>2021-11-17T08:56:17Z</time>
      </trkpt>
      <trkpt lat="43.50846" lon="5.46807">
        <ele>141</ele>
        <time>2021-11-17T08:56:35Z</time>
      </trkpt>
      <trkpt lat="43.50838" lon="5.46814">
        <ele>141</ele>
        <time>2021-11-17T08:56:56Z</time>
      </trkpt>
      <trkpt lat="43.50831" lon="5.46821">
        <ele>140</ele>
        <time>2021-11-17T08:57:03Z</time>
      </trkpt>
      <trkpt lat="43.50823" lon="5.46829">
        <ele>140</ele>
        <time>2021-11-17T08:57:08Z</time>
      </trkpt>
      <trkpt lat="43.50807" lon="5.46842">
        <ele>140</ele>
        <time>2021-11-17T08:57:28Z</time>
      </trkpt>
      <trkpt lat="43.508" lon="5.4685">
        <ele>140</ele>
        <time>2021-11-17T08:57:40Z</time>
      </trkpt>
      <trkpt lat="43.50791" lon="5.46854">
        <ele>139</ele>
        <time>2021-11-17T08:57:48Z</time>
      </trkpt>
      <trkpt lat="43.50781" lon="5.46853">
        <ele>139</ele>
        <time>2021-11-17T08:58:04Z</time>
      </trkpt>
      <trkpt lat="43.50771" lon="5.46853">
        <ele>139</ele>
        <time>2021-11-17T08:58:15Z</time>
      </trkpt>
      <trkpt lat="43.50762" lon="5.46848">
        <ele>139</ele>
        <time>2021-11-17T08:58:31Z</time>
      </trkpt>
      <trkpt lat="43.50748" lon="5.4683">
        <ele>139</ele>
        <time>2021-11-17T08:58:56Z</time>
      </trkpt>
      <trkpt lat="43.50744" lon="5.46818">
        <ele>139</ele>
        <time>2021-11-17T08:59:05Z</time>
      </trkpt>
      <trkpt lat="43.50735" lon="5.46813">
        <ele>139</ele>
        <time>2021-11-17T08:59:10Z</time>
      </trkpt>
      <trkpt lat="43.50728" lon="5.46805">
        <ele>139</ele>
        <time>2021-11-17T08:59:32Z</time>
      </trkpt>
      <trkpt lat="43.5072" lon="5.46793">
        <ele>139</ele>
        <time>2021-11-17T08:59:36Z</time>
      </trkpt>
      <trkpt lat="43.50712" lon="5.46768">
        <ele>138</ele>
        <time>2021-11-17T08:59:48Z</time>
      </trkpt>
      <trkpt lat="43.50707" lon="5.46757">
        <ele>138</ele>
        <time>2021-11-17T08:59:54Z</time>
      </trkpt>
      <trkpt lat="43.50702" lon="5.46732">
        <ele>138</ele>
        <time>2021-11-17T09:00:12Z</time>
      </trkpt>
      <trkpt lat="43.507" lon="5.46719">
        <ele>139</ele>
        <time>2021-11-17T09:00:28Z</time>
      </trkpt>
      <trkpt lat="43.50697" lon="5.46706">
        <ele>139</ele>
        <time>2021-11-17T09:00:36Z</time>
      </trkpt>
      <trkpt lat="43.50698" lon="5.46679">
        <ele>139</ele>
        <time>2021-11-17T09:00:50Z</time>
      </trkpt>
      <trkpt lat="43.50703" lon="5.46654">
        <ele>139</ele>
        <time>2021-11-17T09:01:08Z</time>
      </trkpt>
      <trkpt lat="43.50704" lon="5.46641">
        <ele>139</ele>
        <time>2021-11-17T09:01:34Z</time>
      </trkpt>
      <trkpt lat="43.507" lon="5.46629">
        <ele>139</ele>
        <time>2021-11-17T09:01:48Z</time>
      </trkpt>
      <trkpt lat="43.50694" lon="5.46618">
        <ele>139</ele>
        <time>2021-11-17T09:02:00Z</time>
      </trkpt>
      <trkpt lat="43.50689" lon="5.46607">
        <ele>139</ele>
        <time>2021-11-17T09:02:04Z</time>
      </trkpt>
      <trkpt lat="43.50684" lon="5.46597">
        <ele>139</ele>
        <time>2021-11-17T09:02:11Z</time>
      </trkpt>
      <trkpt lat="43.50676" lon="5.46589">
        <ele>139</ele>
        <time>2021-11-17T09:02:21Z</time>
      </trkpt>
      <trkpt lat="43.50673" lon="5.46576">
        <ele>139</ele>
        <time>2021-11-17T09:02:45Z</time>
      </trkpt>
      <trkpt lat="43.50665" lon="5.46566">
        <ele>139</ele>
        <time>2021-11-17T09:02:57Z</time>
      </trkpt>
      <trkpt lat="43.50664" lon="5.46553">
        <ele>139</ele>
        <time>2021-11-17T09:03:03Z</time>
      </trkpt>
      <trkpt lat="43.50667" lon="5.4654">
        <ele>139</ele>
        <time>2021-11-17T09:03:14Z</time>
      </trkpt>
      <trkpt lat="43.50669" lon="5.46527">
        <ele>139</ele>
        <time>2021-11-17T09:03:19Z</time>
      </trkpt>
      <trkpt lat="43.50668" lon="5.46501">
        <ele>139</ele>
        <time>2021-11-17T09:03:35Z</time>
      </trkpt>
      <trkpt lat="43.50667" lon="5.46475">
        <ele>139</ele>
        <time>2021-11-17T09:04:01Z</time>
      </trkpt>
      <trkpt lat="43.5067" lon="5.46461">
        <ele>139</ele>
        <time>2021-11-17T09:04:07Z</time>
      </trkpt>
      <trkpt lat="43.50678" lon="5.46438">
        <ele>139</ele>
        <time>2021-11-17T09:04:39Z</time>
      </trkpt>
      <trkpt lat="43.50679" lon="5.46425">
        <ele>139</ele>
        <time>2021-11-17T09:04:48Z</time>
      </trkpt>
      <trkpt lat="43.50679" lon="5.46412">
        <ele>139</ele>
        <time>2021-11-17T09:04:54Z</time>
      </trkpt>
      <trkpt lat="43.50687" lon="5.46389">
        <ele>139</ele>
        <time>2021-11-17T09:05:08Z</time>
      </trkpt>
      <trkpt lat="43.50694" lon="5.46377">
        <ele>138</ele>
        <time>2021-11-17T09:05:16Z</time>
      </trkpt>
      <trkpt lat="43.50698" lon="5.46349">
        <ele>137</ele>
        <time>2021-11-17T09:05:31Z</time>
      </trkpt>
      <trkpt lat="43.50701" lon="5.46336">
        <ele>137</ele>
        <time>2021-11-17T09:05:34Z</time>
      </trkpt>
      <trkpt lat="43.50704" lon="5.46323">
        <ele>137</ele>
        <time>2021-11-17T09:05:40Z</time>
      </trkpt>
      <trkpt lat="43.50713" lon="5.46282">
        <ele>138</ele>
        <time>2021-11-17T09:05:53Z</time>
      </trkpt>
      <trkpt lat="43.50715" lon="5.46268">
        <ele>138</ele>
        <time>2021-11-17T09:05:57Z</time>
      </trkpt>
      <trkpt lat="43.50723" lon="5.46242">
        <ele>139</ele>
        <time>2021-11-17T09:06:13Z</time>
      </trkpt>
      <trkpt lat="43.50734" lon="5.4622">
        <ele>140</ele>
        <time>2021-11-17T09:06:32Z</time>
      </trkpt>
      <trkpt lat="43.5074" lon="5.46195">
        <ele>141</ele>
        <time>2021-11-17T09:06:52Z</time>
      </trkpt>
      <trkpt lat="43.50746" lon="5.46185">
        <ele>142</ele>
        <time>2021-11-17T09:07:14Z</time>
      </trkpt>
      <trkpt lat="43.50751" lon="5.46174">
        <ele>141</ele>
        <time>2021-11-17T09:07:21Z</time>
      </trkpt>
      <trkpt lat="43.50764" lon="5.46153">
        <ele>141</ele>
        <time>2021-11-17T09:07:39Z</time>
      </trkpt>
      <trkpt lat="43.5077" lon="5.46143">
        <ele>142</ele>
        <time>2021-11-17T09:07:50Z</time>
      </trkpt>
      <trkpt lat="43.50778" lon="5.4614">
        <ele>141</ele>
        <time>2021-11-17T09:07:55Z</time>
      </trkpt>
      <trkpt lat="43.50786" lon="5.46116">
        <ele>141</ele>
        <time>2021-11-17T09:08:10Z</time>
      </trkpt>
      <trkpt lat="43.50791" lon="5.46105">
        <ele>141</ele>
        <time>2021-11-17T09:08:20Z</time>
      </trkpt>
      <trkpt lat="43.50796" lon="5.46094">
        <ele>141</ele>
        <time>2021-11-17T09:08:27Z</time>
      </trkpt>
      <trkpt lat="43.50805" lon="5.46089">
        <ele>141</ele>
        <time>2021-11-17T09:08:30Z</time>
      </trkpt>
      <trkpt lat="43.50819" lon="5.46071">
        <ele>141</ele>
        <time>2021-11-17T09:08:51Z</time>
      </trkpt>
      <trkpt lat="43.50816" lon="5.46059">
        <ele>142</ele>
        <time>2021-11-17T09:09:35Z</time>
      </trkpt>
      <trkpt lat="43.508" lon="5.46043">
        <ele>145</ele>
        <time>2021-11-17T09:09:52Z</time>
      </trkpt>
      <trkpt lat="43.50791" lon="5.46037">
        <ele>147</ele>
        <time>2021-11-17T09:10:03Z</time>
      </trkpt>
      <trkpt lat="43.50771" lon="5.4603">
        <ele>150</ele>
        <time>2021-11-17T09:10:20Z</time>
      </trkpt>
      <trkpt lat="43.50762" lon="5.46032">
        <ele>152</ele>
        <time>2021-11-17T09:10:57Z</time>
      </trkpt>
      <trkpt lat="43.50744" lon="5.46041">
        <ele>153</ele>
        <time>2021-11-17T09:11:10Z</time>
      </trkpt>
      <trkpt lat="43.50735" lon="5.46044">
        <ele>154</ele>
        <time>2021-11-17T09:11:16Z</time>
      </trkpt>
      <trkpt lat="43.50728" lon="5.46052">
        <ele>155</ele>
        <time>2021-11-17T09:11:21Z</time>
      </trkpt>
      <trkpt lat="43.50722" lon="5.46062">
        <ele>156</ele>
        <time>2021-11-17T09:11:41Z</time>
      </trkpt>
      <trkpt lat="43.50715" lon="5.4607">
        <ele>157</ele>
        <time>2021-11-17T09:11:55Z</time>
      </trkpt>
      <trkpt lat="43.5071" lon="5.46081">
        <ele>157</ele>
        <time>2021-11-17T09:12:14Z</time>
      </trkpt>
      <trkpt lat="43.50702" lon="5.46088">
        <ele>158</ele>
        <time>2021-11-17T09:12:31Z</time>
      </trkpt>
      <trkpt lat="43.50695" lon="5.46095">
        <ele>159</ele>
        <time>2021-11-17T09:13:00Z</time>
      </trkpt>
      <trkpt lat="43.50685" lon="5.46117">
        <ele>158</ele>
        <time>2021-11-17T09:13:30Z</time>
      </trkpt>
      <trkpt lat="43.5068" lon="5.46129">
        <ele>158</ele>
        <time>2021-11-17T09:13:37Z</time>
      </trkpt>
      <trkpt lat="43.50673" lon="5.46137">
        <ele>160</ele>
        <time>2021-11-17T09:13:46Z</time>
      </trkpt>
      <trkpt lat="43.50668" lon="5.46149">
        <ele>159</ele>
        <time>2021-11-17T09:13:56Z</time>
      </trkpt>
      <trkpt lat="43.5065" lon="5.4616">
        <ele>162</ele>
        <time>2021-11-17T09:14:10Z</time>
      </trkpt>
      <trkpt lat="43.50632" lon="5.46167">
        <ele>165</ele>
        <time>2021-11-17T09:14:26Z</time>
      </trkpt>
      <trkpt lat="43.50613" lon="5.46174">
        <ele>168</ele>
        <time>2021-11-17T09:14:42Z</time>
      </trkpt>
      <trkpt lat="43.50604" lon="5.46181">
        <ele>170</ele>
        <time>2021-11-17T09:14:48Z</time>
      </trkpt>
      <trkpt lat="43.50588" lon="5.46192">
        <ele>172</ele>
        <time>2021-11-17T09:15:06Z</time>
      </trkpt>
      <trkpt lat="43.50578" lon="5.46195">
        <ele>174</ele>
        <time>2021-11-17T09:15:21Z</time>
      </trkpt>
      <trkpt lat="43.50571" lon="5.46202">
        <ele>175</ele>
        <time>2021-11-17T09:15:30Z</time>
      </trkpt>
      <trkpt lat="43.50561" lon="5.46212">
        <ele>176</ele>
        <time>2021-11-17T09:15:49Z</time>
      </trkpt>
      <trkpt lat="43.50562" lon="5.46211">
        <ele>176</ele>
        <time>2021-11-17T09:15:57Z</time>
      </trkpt>
      <trkpt lat="43.50561" lon="5.46214">
        <ele>176</ele>
        <time>2021-11-17T09:16:03Z</time>
      </trkpt>
      <trkpt lat="43.50556" lon="5.46227">
        <ele>175</ele>
        <time>2021-11-17T09:16:11Z</time>
      </trkpt>
      <trkpt lat="43.50554" lon="5.46229">
        <ele>175</ele>
        <time>2021-11-17T09:16:17Z</time>
      </trkpt>
      <trkpt lat="43.5055" lon="5.46242">
        <ele>174</ele>
        <time>2021-11-17T09:16:26Z</time>
      </trkpt>
      <trkpt lat="43.50533" lon="5.46259">
        <ele>175</ele>
        <time>2021-11-17T09:16:52Z</time>
      </trkpt>
      <trkpt lat="43.50516" lon="5.4627">
        <ele>177</ele>
        <time>2021-11-17T09:17:08Z</time>
      </trkpt>
      <trkpt lat="43.505" lon="5.46281">
        <ele>179</ele>
        <time>2021-11-17T09:17:29Z</time>
      </trkpt>
      <trkpt lat="43.50492" lon="5.46292">
        <ele>180</ele>
        <time>2021-11-17T09:17:42Z</time>
      </trkpt>
      <trkpt lat="43.50493" lon="5.46304">
        <ele>179</ele>
        <time>2021-11-17T09:17:51Z</time>
      </trkpt>
      <trkpt lat="43.50489" lon="5.46316">
        <ele>179</ele>
        <time>2021-11-17T09:18:00Z</time>
      </trkpt>
      <trkpt lat="43.50484" lon="5.46326">
        <ele>180</ele>
        <time>2021-11-17T09:18:16Z</time>
      </trkpt>
      <trkpt lat="43.50477" lon="5.46351">
        <ele>179</ele>
        <time>2021-11-17T09:18:39Z</time>
      </trkpt>
      <trkpt lat="43.50454" lon="5.46373">
        <ele>183</ele>
        <time>2021-11-17T09:19:13Z</time>
      </trkpt>
      <trkpt lat="43.50447" lon="5.46382">
        <ele>184</ele>
        <time>2021-11-17T09:19:28Z</time>
      </trkpt>
      <trkpt lat="43.50438" lon="5.46385">
        <ele>185</ele>
        <time>2021-11-17T09:19:38Z</time>
      </trkpt>
      <trkpt lat="43.50418" lon="5.46387">
        <ele>188</ele>
        <time>2021-11-17T09:19:49Z</time>
      </trkpt>
      <trkpt lat="43.50388" lon="5.46397">
        <ele>188</ele>
        <time>2021-11-17T09:20:04Z</time>
      </trkpt>
      <trkpt lat="43.50379" lon="5.46401">
        <ele>186</ele>
        <time>2021-11-17T09:20:10Z</time>
      </trkpt>
      <trkpt lat="43.5036" lon="5.46402">
        <ele>185</ele>
        <time>2021-11-17T09:20:27Z</time>
      </trkpt>
      <trkpt lat="43.50351" lon="5.46398">
        <ele>185</ele>
        <time>2021-11-17T09:20:37Z</time>
      </trkpt>
      <trkpt lat="43.50332" lon="5.46401">
        <ele>183</ele>
        <time>2021-11-17T09:20:53Z</time>
      </trkpt>
      <trkpt lat="43.50315" lon="5.46392">
        <ele>184</ele>
        <time>2021-11-17T09:21:12Z</time>
      </trkpt>
      <trkpt lat="43.50304" lon="5.4639">
        <ele>184</ele>
        <time>2021-11-17T09:21:26Z</time>
      </trkpt>
      <trkpt lat="43.50286" lon="5.46386">
        <ele>183</ele>
        <time>2021-11-17T09:21:43Z</time>
      </trkpt>
      <trkpt lat="43.50266" lon="5.46382">
        <ele>182</ele>
        <time>2021-11-17T09:22:05Z</time>
      </trkpt>
      <trkpt lat="43.50257" lon="5.46381">
        <ele>182</ele>
        <time>2021-11-17T09:22:14Z</time>
      </trkpt>
      <trkpt lat="43.50247" lon="5.46382">
        <ele>181</ele>
        <time>2021-11-17T09:22:28Z</time>
      </trkpt>
      <trkpt lat="43.50221" lon="5.46369">
        <ele>182</ele>
        <time>2021-11-17T09:22:56Z</time>
      </trkpt>
      <trkpt lat="43.50203" lon="5.4636">
        <ele>183</ele>
        <time>2021-11-17T09:23:11Z</time>
      </trkpt>
      <trkpt lat="43.50186" lon="5.4635">
        <ele>185</ele>
        <time>2021-11-17T09:23:22Z</time>
      </trkpt>
      <trkpt lat="43.50167" lon="5.46348">
        <ele>186</ele>
        <time>2021-11-17T09:23:39Z</time>
      </trkpt>
      <trkpt lat="43.50147" lon="5.46355">
        <ele>187</ele>
        <time>2021-11-17T09:23:56Z</time>
      </trkpt>
      <trkpt lat="43.50135" lon="5.46353">
        <ele>188</ele>
        <time>2021-11-17T09:24:09Z</time>
      </trkpt>
      <trkpt lat="43.50131" lon="5.46341">
        <ele>190</ele>
        <time>2021-11-17T09:24:42Z</time>
      </trkpt>
      <trkpt lat="43.50134" lon="5.46355">
        <ele>188</ele>
        <time>2021-11-17T09:26:29Z</time>
      </trkpt>
      <trkpt lat="43.50126" lon="5.46359">
        <ele>188</ele>
        <time>2021-11-17T09:27:12Z</time>
      </trkpt>
      <trkpt lat="43.50106" lon="5.46355">
        <ele>191</ele>
        <time>2021-11-17T09:27:32Z</time>
      </trkpt>
      <trkpt lat="43.50097" lon="5.46355">
        <ele>192</ele>
        <time>2021-11-17T09:27:47Z</time>
      </trkpt>
      <trkpt lat="43.50088" lon="5.4636">
        <ele>192</ele>
        <time>2021-11-17T09:27:55Z</time>
      </trkpt>
      <trkpt lat="43.50072" lon="5.46373">
        <ele>193</ele>
        <time>2021-11-17T09:28:20Z</time>
      </trkpt>
      <trkpt lat="43.5005" lon="5.46382">
        <ele>195</ele>
        <time>2021-11-17T09:28:44Z</time>
      </trkpt>
      <trkpt lat="43.50042" lon="5.46387">
        <ele>196</ele>
        <time>2021-11-17T09:28:54Z</time>
      </trkpt>
      <trkpt lat="43.50033" lon="5.46387">
        <ele>197</ele>
        <time>2021-11-17T09:29:11Z</time>
      </trkpt>
      <trkpt lat="43.50023" lon="5.46389">
        <ele>199</ele>
        <time>2021-11-17T09:30:22Z</time>
      </trkpt>
      <trkpt lat="43.50015" lon="5.46382">
        <ele>199</ele>
        <time>2021-11-17T09:30:39Z</time>
      </trkpt>
      <trkpt lat="43.50006" lon="5.46381">
        <ele>200</ele>
        <time>2021-11-17T09:31:16Z</time>
      </trkpt>
      <trkpt lat="43.49997" lon="5.46385">
        <ele>201</ele>
        <time>2021-11-17T09:31:25Z</time>
      </trkpt>
      <trkpt lat="43.49987" lon="5.46384">
        <ele>201</ele>
        <time>2021-11-17T09:31:33Z</time>
      </trkpt>
      <trkpt lat="43.49979" lon="5.46378">
        <ele>201</ele>
        <time>2021-11-17T09:31:49Z</time>
      </trkpt>
      <trkpt lat="43.49972" lon="5.46368">
        <ele>199</ele>
        <time>2021-11-17T09:32:31Z</time>
      </trkpt>
      <trkpt lat="43.49968" lon="5.46357">
        <ele>200</ele>
        <time>2021-11-17T09:32:53Z</time>
      </trkpt>
      <trkpt lat="43.49965" lon="5.46344">
        <ele>204</ele>
        <time>2021-11-17T09:37:41Z</time>
      </trkpt>
      <trkpt lat="43.49952" lon="5.46308">
        <ele>211</ele>
        <time>2021-11-17T09:38:20Z</time>
      </trkpt>
      <trkpt lat="43.49945" lon="5.46284">
        <ele>215</ele>
        <time>2021-11-17T09:38:39Z</time>
      </trkpt>
      <trkpt lat="43.49941" lon="5.46272">
        <ele>220</ele>
        <time>2021-11-17T09:38:58Z</time>
      </trkpt>
      <trkpt lat="43.49928" lon="5.46252">
        <ele>222</ele>
        <time>2021-11-17T09:39:24Z</time>
      </trkpt>
      <trkpt lat="43.49923" lon="5.46241">
        <ele>222</ele>
        <time>2021-11-17T09:39:37Z</time>
      </trkpt>
      <trkpt lat="43.49922" lon="5.46228">
        <ele>218</ele>
        <time>2021-11-17T09:39:51Z</time>
      </trkpt>
      <trkpt lat="43.49925" lon="5.46215">
        <ele>226</ele>
        <time>2021-11-17T09:40:10Z</time>
      </trkpt>
      <trkpt lat="43.49918" lon="5.46206">
        <ele>229</ele>
        <time>2021-11-17T09:40:25Z</time>
      </trkpt>
      <trkpt lat="43.49909" lon="5.46202">
        <ele>230</ele>
        <time>2021-11-17T09:40:40Z</time>
      </trkpt>
      <trkpt lat="43.499" lon="5.46198">
        <ele>232</ele>
        <time>2021-11-17T09:41:02Z</time>
      </trkpt>
      <trkpt lat="43.49891" lon="5.46192">
        <ele>233</ele>
        <time>2021-11-17T09:41:12Z</time>
      </trkpt>
      <trkpt lat="43.49881" lon="5.46171">
        <ele>238</ele>
        <time>2021-11-17T09:42:11Z</time>
      </trkpt>
      <trkpt lat="43.49877" lon="5.46147">
        <ele>243</ele>
        <time>2021-11-17T09:43:21Z</time>
      </trkpt>
      <trkpt lat="43.49868" lon="5.46146">
        <ele>241</ele>
        <time>2021-11-17T09:43:35Z</time>
      </trkpt>
      <trkpt lat="43.49867" lon="5.46133">
        <ele>242</ele>
        <time>2021-11-17T09:43:51Z</time>
      </trkpt>
      <trkpt lat="43.49861" lon="5.46123">
        <ele>244</ele>
        <time>2021-11-17T09:44:33Z</time>
      </trkpt>
      <trkpt lat="43.49848" lon="5.46104">
        <ele>249</ele>
        <time>2021-11-17T09:45:01Z</time>
      </trkpt>
      <trkpt lat="43.49829" lon="5.46108">
        <ele>249</ele>
        <time>2021-11-17T09:45:25Z</time>
      </trkpt>
      <trkpt lat="43.49813" lon="5.46093">
        <ele>252</ele>
        <time>2021-11-17T09:47:01Z</time>
      </trkpt>
      <trkpt lat="43.49801" lon="5.46075">
        <ele>255</ele>
        <time>2021-11-17T09:47:36Z</time>
      </trkpt>
      <trkpt lat="43.49797" lon="5.46063">
        <ele>259</ele>
        <time>2021-11-17T09:47:57Z</time>
      </trkpt>
      <trkpt lat="43.49789" lon="5.46055">
        <ele>261</ele>
        <time>2021-11-17T09:48:13Z</time>
      </trkpt>
      <trkpt lat="43.49781" lon="5.4605">
        <ele>262</ele>
        <time>2021-11-17T09:48:44Z</time>
      </trkpt>
      <trkpt lat="43.49771" lon="5.4605">
        <ele>262</ele>
        <time>2021-11-17T09:48:56Z</time>
      </trkpt>
      <trkpt lat="43.49766" lon="5.46039">
        <ele>266</ele>
        <time>2021-11-17T09:49:28Z</time>
      </trkpt>
      <trkpt lat="43.49761" lon="5.46029">
        <ele>270</ele>
        <time>2021-11-17T09:49:43Z</time>
      </trkpt>
      <trkpt lat="43.49754" lon="5.46021">
        <ele>273</ele>
        <time>2021-11-17T09:49:52Z</time>
      </trkpt>
      <trkpt lat="43.49745" lon="5.46018">
        <ele>275</ele>
        <time>2021-11-17T09:50:03Z</time>
      </trkpt>
      <trkpt lat="43.49728" lon="5.46008">
        <ele>279</ele>
        <time>2021-11-17T09:50:45Z</time>
      </trkpt>
      <trkpt lat="43.49714" lon="5.45992">
        <ele>284</ele>
        <time>2021-11-17T09:51:19Z</time>
      </trkpt>
      <trkpt lat="43.49705" lon="5.4599">
        <ele>286</ele>
        <time>2021-11-17T09:51:38Z</time>
      </trkpt>
      <trkpt lat="43.49697" lon="5.45984">
        <ele>288</ele>
        <time>2021-11-17T09:51:47Z</time>
      </trkpt>
      <trkpt lat="43.49687" lon="5.45962">
        <ele>291</ele>
        <time>2021-11-17T09:52:14Z</time>
      </trkpt>
      <trkpt lat="43.49681" lon="5.45951">
        <ele>292</ele>
        <time>2021-11-17T09:52:35Z</time>
      </trkpt>
      <trkpt lat="43.49679" lon="5.45939">
        <ele>294</ele>
        <time>2021-11-17T09:52:54Z</time>
      </trkpt>
      <trkpt lat="43.49673" lon="5.45929">
        <ele>295</ele>
        <time>2021-11-17T09:53:19Z</time>
      </trkpt>
      <trkpt lat="43.49669" lon="5.45912">
        <ele>297</ele>
        <time>2021-11-17T09:54:42Z</time>
      </trkpt>
      <trkpt lat="43.49669" lon="5.45911">
        <ele>297</ele>
        <time>2021-11-17T09:54:58Z</time>
      </trkpt>
      <trkpt lat="43.4967" lon="5.45907">
        <ele>297</ele>
        <time>2021-11-17T09:55:02Z</time>
      </trkpt>
      <trkpt lat="43.49667" lon="5.45908">
        <ele>297</ele>
        <time>2021-11-17T09:55:14Z</time>
      </trkpt>
      <trkpt lat="43.49663" lon="5.45903">
        <ele>297</ele>
        <time>2021-11-17T09:55:20Z</time>
      </trkpt>
      <trkpt lat="43.49657" lon="5.45905">
        <ele>297</ele>
        <time>2021-11-17T09:55:26Z</time>
      </trkpt>
      <trkpt lat="43.49655" lon="5.45904">
        <ele>297</ele>
        <time>2021-11-17T09:55:50Z</time>
      </trkpt>
      <trkpt lat="43.49652" lon="5.45905">
        <ele>297</ele>
        <time>2021-11-17T09:55:54Z</time>
      </trkpt>
      <trkpt lat="43.4965" lon="5.45907">
        <ele>297</ele>
        <time>2021-11-17T09:56:00Z</time>
      </trkpt>
      <trkpt lat="43.49643" lon="5.45911">
        <ele>296</ele>
        <time>2021-11-17T09:56:08Z</time>
      </trkpt>
      <trkpt lat="43.49636" lon="5.45911">
        <ele>295</ele>
        <time>2021-11-17T09:56:16Z</time>
      </trkpt>
      <trkpt lat="43.4963" lon="5.45914">
        <ele>295</ele>
        <time>2021-11-17T09:56:24Z</time>
      </trkpt>
      <trkpt lat="43.49619" lon="5.45914">
        <ele>296</ele>
        <time>2021-11-17T09:56:32Z</time>
      </trkpt>
      <trkpt lat="43.49615" lon="5.4591">
        <ele>297</ele>
        <time>2021-11-17T09:56:40Z</time>
      </trkpt>
      <trkpt lat="43.4961" lon="5.45906">
        <ele>298</ele>
        <time>2021-11-17T09:56:44Z</time>
      </trkpt>
      <trkpt lat="43.49605" lon="5.45905">
        <ele>299</ele>
        <time>2021-11-17T09:56:48Z</time>
      </trkpt>
      <trkpt lat="43.49601" lon="5.45907">
        <ele>300</ele>
        <time>2021-11-17T09:56:58Z</time>
      </trkpt>
      <trkpt lat="43.49598" lon="5.45908">
        <ele>300</ele>
        <time>2021-11-17T09:57:06Z</time>
      </trkpt>
      <trkpt lat="43.49592" lon="5.45911">
        <ele>301</ele>
        <time>2021-11-17T09:57:10Z</time>
      </trkpt>
      <trkpt lat="43.49586" lon="5.45921">
        <ele>302</ele>
        <time>2021-11-17T09:57:18Z</time>
      </trkpt>
      <trkpt lat="43.49583" lon="5.45922">
        <ele>303</ele>
        <time>2021-11-17T09:57:22Z</time>
      </trkpt>
      <trkpt lat="43.4958" lon="5.4593">
        <ele>302</ele>
        <time>2021-11-17T09:57:28Z</time>
      </trkpt>
      <trkpt lat="43.49575" lon="5.45934">
        <ele>301</ele>
        <time>2021-11-17T09:57:34Z</time>
      </trkpt>
      <trkpt lat="43.49573" lon="5.45937">
        <ele>301</ele>
        <time>2021-11-17T09:57:42Z</time>
      </trkpt>
      <trkpt lat="43.49572" lon="5.4594">
        <ele>301</ele>
        <time>2021-11-17T09:57:50Z</time>
      </trkpt>
      <trkpt lat="43.49568" lon="5.45946">
        <ele>301</ele>
        <time>2021-11-17T09:57:56Z</time>
      </trkpt>
      <trkpt lat="43.49563" lon="5.4595">
        <ele>302</ele>
        <time>2021-11-17T09:58:03Z</time>
      </trkpt>
      <trkpt lat="43.49554" lon="5.45956">
        <ele>303</ele>
        <time>2021-11-17T09:58:11Z</time>
      </trkpt>
      <trkpt lat="43.4955" lon="5.45961">
        <ele>303</ele>
        <time>2021-11-17T09:58:19Z</time>
      </trkpt>
      <trkpt lat="43.4955" lon="5.45963">
        <ele>302</ele>
        <time>2021-11-17T09:58:27Z</time>
      </trkpt>
      <trkpt lat="43.49547" lon="5.45967">
        <ele>302</ele>
        <time>2021-11-17T09:58:33Z</time>
      </trkpt>
      <trkpt lat="43.49547" lon="5.45968">
        <ele>302</ele>
        <time>2021-11-17T09:58:43Z</time>
      </trkpt>
      <trkpt lat="43.4954" lon="5.4597">
        <ele>303</ele>
        <time>2021-11-17T09:58:49Z</time>
      </trkpt>
      <trkpt lat="43.49536" lon="5.4597">
        <ele>303</ele>
        <time>2021-11-17T09:58:57Z</time>
      </trkpt>
      <trkpt lat="43.4953" lon="5.45972">
        <ele>303</ele>
        <time>2021-11-17T09:59:05Z</time>
      </trkpt>
      <trkpt lat="43.49527" lon="5.4597">
        <ele>304</ele>
        <time>2021-11-17T09:59:09Z</time>
      </trkpt>
      <trkpt lat="43.49522" lon="5.45974">
        <ele>303</ele>
        <time>2021-11-17T09:59:15Z</time>
      </trkpt>
      <trkpt lat="43.49517" lon="5.45977">
        <ele>303</ele>
        <time>2021-11-17T09:59:21Z</time>
      </trkpt>
      <trkpt lat="43.49505" lon="5.4599">
        <ele>303</ele>
        <time>2021-11-17T09:59:33Z</time>
      </trkpt>
      <trkpt lat="43.49495" lon="5.45999">
        <ele>304</ele>
        <time>2021-11-17T09:59:44Z</time>
      </trkpt>
      <trkpt lat="43.49489" lon="5.46009">
        <ele>304</ele>
        <time>2021-11-17T09:59:52Z</time>
      </trkpt>
      <trkpt lat="43.49483" lon="5.46018">
        <ele>304</ele>
        <time>2021-11-17T10:00:00Z</time>
      </trkpt>
      <trkpt lat="43.4948" lon="5.46022">
        <ele>305</ele>
        <time>2021-11-17T10:00:06Z</time>
      </trkpt>
      <trkpt lat="43.49472" lon="5.46031">
        <ele>306</ele>
        <time>2021-11-17T10:00:16Z</time>
      </trkpt>
      <trkpt lat="43.49467" lon="5.46042">
        <ele>305</ele>
        <time>2021-11-17T10:00:24Z</time>
      </trkpt>
      <trkpt lat="43.49461" lon="5.46047">
        <ele>305</ele>
        <time>2021-11-17T10:00:30Z</time>
      </trkpt>
      <trkpt lat="43.49456" lon="5.46057">
        <ele>305</ele>
        <time>2021-11-17T10:00:40Z</time>
      </trkpt>
      <trkpt lat="43.49447" lon="5.46078">
        <ele>304</ele>
        <time>2021-11-17T10:00:56Z</time>
      </trkpt>
      <trkpt lat="43.49434" lon="5.46093">
        <ele>304</ele>
        <time>2021-11-17T10:01:14Z</time>
      </trkpt>
      <trkpt lat="43.49423" lon="5.46115">
        <ele>305</ele>
        <time>2021-11-17T10:01:31Z</time>
      </trkpt>
      <trkpt lat="43.4941" lon="5.46136">
        <ele>304</ele>
        <time>2021-11-17T10:01:52Z</time>
      </trkpt>
      <trkpt lat="43.49398" lon="5.46156">
        <ele>303</ele>
        <time>2021-11-17T10:02:09Z</time>
      </trkpt>
      <trkpt lat="43.49389" lon="5.4618">
        <ele>302</ele>
        <time>2021-11-17T10:02:25Z</time>
      </trkpt>
      <trkpt lat="43.49367" lon="5.46222">
        <ele>300</ele>
        <time>2021-11-17T10:03:01Z</time>
      </trkpt>
      <trkpt lat="43.4937" lon="5.46234">
        <ele>299</ele>
        <time>2021-11-17T10:03:26Z</time>
      </trkpt>
      <trkpt lat="43.49389" lon="5.46239">
        <ele>296</ele>
        <time>2021-11-17T10:03:47Z</time>
      </trkpt>
      <trkpt lat="43.49398" lon="5.46235">
        <ele>295</ele>
        <time>2021-11-17T10:03:56Z</time>
      </trkpt>
      <trkpt lat="43.49407" lon="5.46236">
        <ele>293</ele>
        <time>2021-11-17T10:04:15Z</time>
      </trkpt>
      <trkpt lat="43.49417" lon="5.46235">
        <ele>292</ele>
        <time>2021-11-17T10:04:25Z</time>
      </trkpt>
      <trkpt lat="43.49425" lon="5.46227">
        <ele>291</ele>
        <time>2021-11-17T10:04:36Z</time>
      </trkpt>
      <trkpt lat="43.49443" lon="5.46225">
        <ele>287</ele>
        <time>2021-11-17T10:04:53Z</time>
      </trkpt>
      <trkpt lat="43.49451" lon="5.46218">
        <ele>287</ele>
        <time>2021-11-17T10:05:03Z</time>
      </trkpt>
      <trkpt lat="43.49469" lon="5.46211">
        <ele>286</ele>
        <time>2021-11-17T10:05:21Z</time>
      </trkpt>
      <trkpt lat="43.49489" lon="5.46213">
        <ele>283</ele>
        <time>2021-11-17T10:05:42Z</time>
      </trkpt>
      <trkpt lat="43.49498" lon="5.46216">
        <ele>282</ele>
        <time>2021-11-17T10:06:00Z</time>
      </trkpt>
      <trkpt lat="43.49518" lon="5.46216">
        <ele>280</ele>
        <time>2021-11-17T10:06:20Z</time>
      </trkpt>
      <trkpt lat="43.49527" lon="5.46211">
        <ele>280</ele>
        <time>2021-11-17T10:06:28Z</time>
      </trkpt>
      <trkpt lat="43.49537" lon="5.46212">
        <ele>279</ele>
        <time>2021-11-17T10:06:38Z</time>
      </trkpt>
      <trkpt lat="43.49542" lon="5.46202">
        <ele>278</ele>
        <time>2021-11-17T10:06:46Z</time>
      </trkpt>
      <trkpt lat="43.49551" lon="5.46199">
        <ele>276</ele>
        <time>2021-11-17T10:07:00Z</time>
      </trkpt>
      <trkpt lat="43.4956" lon="5.46202">
        <ele>275</ele>
        <time>2021-11-17T10:07:08Z</time>
      </trkpt>
      <trkpt lat="43.4957" lon="5.46201">
        <ele>275</ele>
        <time>2021-11-17T10:07:15Z</time>
      </trkpt>
      <trkpt lat="43.49598" lon="5.46193">
        <ele>274</ele>
        <time>2021-11-17T10:07:50Z</time>
      </trkpt>
      <trkpt lat="43.49606" lon="5.46187">
        <ele>273</ele>
        <time>2021-11-17T10:07:58Z</time>
      </trkpt>
      <trkpt lat="43.49614" lon="5.4618">
        <ele>272</ele>
        <time>2021-11-17T10:08:12Z</time>
      </trkpt>
      <trkpt lat="43.49619" lon="5.46169">
        <ele>272</ele>
        <time>2021-11-17T10:08:23Z</time>
      </trkpt>
      <trkpt lat="43.49628" lon="5.46164">
        <ele>271</ele>
        <time>2021-11-17T10:08:32Z</time>
      </trkpt>
      <trkpt lat="43.49634" lon="5.46156">
        <ele>270</ele>
        <time>2021-11-17T10:08:39Z</time>
      </trkpt>
      <trkpt lat="43.49643" lon="5.46151">
        <ele>269</ele>
        <time>2021-11-17T10:08:49Z</time>
      </trkpt>
      <trkpt lat="43.49656" lon="5.46132">
        <ele>266</ele>
        <time>2021-11-17T10:09:16Z</time>
      </trkpt>
      <trkpt lat="43.49664" lon="5.46125">
        <ele>266</ele>
        <time>2021-11-17T10:09:35Z</time>
      </trkpt>
      <trkpt lat="43.49678" lon="5.46108">
        <ele>264</ele>
        <time>2021-11-17T10:09:52Z</time>
      </trkpt>
      <trkpt lat="43.49695" lon="5.46096">
        <ele>264</ele>
        <time>2021-11-17T10:10:09Z</time>
      </trkpt>
      <trkpt lat="43.49714" lon="5.46095">
        <ele>262</ele>
        <time>2021-11-17T10:10:28Z</time>
      </trkpt>
      <trkpt lat="43.49723" lon="5.46094">
        <ele>260</ele>
        <time>2021-11-17T10:10:40Z</time>
      </trkpt>
      <trkpt lat="43.49724" lon="5.46106">
        <ele>260</ele>
        <time>2021-11-17T10:10:51Z</time>
      </trkpt>
      <trkpt lat="43.49734" lon="5.46129">
        <ele>263</ele>
        <time>2021-11-17T10:11:11Z</time>
      </trkpt>
      <trkpt lat="43.49741" lon="5.46137">
        <ele>265</ele>
        <time>2021-11-17T10:11:29Z</time>
      </trkpt>
      <trkpt lat="43.49735" lon="5.46147">
        <ele>267</ele>
        <time>2021-11-17T10:11:52Z</time>
      </trkpt>
      <trkpt lat="43.49728" lon="5.46157">
        <ele>269</ele>
        <time>2021-11-17T10:12:00Z</time>
      </trkpt>
      <trkpt lat="43.49721" lon="5.46164">
        <ele>272</ele>
        <time>2021-11-17T10:12:15Z</time>
      </trkpt>
      <trkpt lat="43.49706" lon="5.46181">
        <ele>276</ele>
        <time>2021-11-17T10:12:37Z</time>
      </trkpt>
      <trkpt lat="43.4969" lon="5.46191">
        <ele>278</ele>
        <time>2021-11-17T10:12:58Z</time>
      </trkpt>
      <trkpt lat="43.49687" lon="5.46203">
        <ele>281</ele>
        <time>2021-11-17T10:13:18Z</time>
      </trkpt>
      <trkpt lat="43.49683" lon="5.46215">
        <ele>283</ele>
        <time>2021-11-17T10:13:27Z</time>
      </trkpt>
      <trkpt lat="43.49669" lon="5.4623">
        <ele>284</ele>
        <time>2021-11-17T10:13:46Z</time>
      </trkpt>
      <trkpt lat="43.4966" lon="5.46267">
        <ele>289</ele>
        <time>2021-11-17T10:14:20Z</time>
      </trkpt>
      <trkpt lat="43.49655" lon="5.46279">
        <ele>291</ele>
        <time>2021-11-17T10:14:32Z</time>
      </trkpt>
      <trkpt lat="43.49654" lon="5.46292">
        <ele>290</ele>
        <time>2021-11-17T10:14:41Z</time>
      </trkpt>
      <trkpt lat="43.49663" lon="5.46286">
        <ele>290</ele>
        <time>2021-11-17T10:14:57Z</time>
      </trkpt>
      <trkpt lat="43.49668" lon="5.46276">
        <ele>291</ele>
        <time>2021-11-17T10:16:32Z</time>
      </trkpt>
      <trkpt lat="43.4967" lon="5.46274">
        <ele>290</ele>
        <time>2021-11-17T10:18:44Z</time>
      </trkpt>
      <trkpt lat="43.49668" lon="5.46277">
        <ele>291</ele>
        <time>2021-11-17T10:19:48Z</time>
      </trkpt>
      <trkpt lat="43.49668" lon="5.46277">
        <ele>291</ele>
        <time>2021-11-17T10:19:49Z</time>
      </trkpt>
      <trkpt lat="43.49668" lon="5.46277">
        <ele>291</ele>
        <time>2021-11-17T10:19:49Z</time>
      </trkpt>
      <trkpt lat="43.49434" lon="5.46224">
        <ele>289</ele>
        <time>2021-11-17T10:47:14Z</time>
      </trkpt>
      <trkpt lat="43.49424" lon="5.46228">
        <ele>290</ele>
        <time>2021-11-17T10:47:24Z</time>
      </trkpt>
      <trkpt lat="43.49418" lon="5.46229">
        <ele>291</ele>
        <time>2021-11-17T10:47:32Z</time>
      </trkpt>
      <trkpt lat="43.49412" lon="5.46234">
        <ele>292</ele>
        <time>2021-11-17T10:47:40Z</time>
      </trkpt>
      <trkpt lat="43.49409" lon="5.46238">
        <ele>293</ele>
        <time>2021-11-17T10:47:48Z</time>
      </trkpt>
      <trkpt lat="43.49406" lon="5.4624">
        <ele>293</ele>
        <time>2021-11-17T10:47:56Z</time>
      </trkpt>
      <trkpt lat="43.49405" lon="5.46238">
        <ele>293</ele>
        <time>2021-11-17T10:48:08Z</time>
      </trkpt>
      <trkpt lat="43.49401" lon="5.46232">
        <ele>294</ele>
        <time>2021-11-17T10:48:16Z</time>
      </trkpt>
      <trkpt lat="43.49391" lon="5.46238">
        <ele>296</ele>
        <time>2021-11-17T10:48:28Z</time>
      </trkpt>
      <trkpt lat="43.49388" lon="5.4624">
        <ele>296</ele>
        <time>2021-11-17T10:48:34Z</time>
      </trkpt>
      <trkpt lat="43.49383" lon="5.46242">
        <ele>297</ele>
        <time>2021-11-17T10:48:42Z</time>
      </trkpt>
      <trkpt lat="43.49378" lon="5.46248">
        <ele>297</ele>
        <time>2021-11-17T10:48:47Z</time>
      </trkpt>
      <trkpt lat="43.49372" lon="5.46252">
        <ele>298</ele>
        <time>2021-11-17T10:48:55Z</time>
      </trkpt>
      <trkpt lat="43.49367" lon="5.46254">
        <ele>298</ele>
        <time>2021-11-17T10:49:01Z</time>
      </trkpt>
      <trkpt lat="43.49362" lon="5.46253">
        <ele>299</ele>
        <time>2021-11-17T10:49:09Z</time>
      </trkpt>
      <trkpt lat="43.49359" lon="5.46255">
        <ele>299</ele>
        <time>2021-11-17T10:49:15Z</time>
      </trkpt>
      <trkpt lat="43.49357" lon="5.46255">
        <ele>298</ele>
        <time>2021-11-17T10:49:27Z</time>
      </trkpt>
      <trkpt lat="43.49355" lon="5.46254">
        <ele>298</ele>
        <time>2021-11-17T10:49:55Z</time>
      </trkpt>
      <trkpt lat="43.49356" lon="5.46254">
        <ele>298</ele>
        <time>2021-11-17T10:49:59Z</time>
      </trkpt>
      <trkpt lat="43.49354" lon="5.46254">
        <ele>298</ele>
        <time>2021-11-17T10:50:17Z</time>
      </trkpt>
      <trkpt lat="43.49355" lon="5.46255">
        <ele>298</ele>
        <time>2021-11-17T10:50:35Z</time>
      </trkpt>
      <trkpt lat="43.49354" lon="5.46255">
        <ele>298</ele>
        <time>2021-11-17T10:51:03Z</time>
      </trkpt>
      <trkpt lat="43.49354" lon="5.46255">
        <ele>298</ele>
        <time>2021-11-17T10:51:03Z</time>
      </trkpt>
      <trkpt lat="43.49349" lon="5.46258">
        <ele>298</ele>
        <time>2021-11-17T10:54:50Z</time>
      </trkpt>
      <trkpt lat="43.49345" lon="5.46257">
        <ele>297</ele>
        <time>2021-11-17T10:55:00Z</time>
      </trkpt>
      <trkpt lat="43.49342" lon="5.46265">
        <ele>297</ele>
        <time>2021-11-17T10:55:08Z</time>
      </trkpt>
      <trkpt lat="43.49342" lon="5.46264">
        <ele>297</ele>
        <time>2021-11-17T10:55:20Z</time>
      </trkpt>
      <trkpt lat="43.49342" lon="5.46259">
        <ele>297</ele>
        <time>2021-11-17T10:55:26Z</time>
      </trkpt>
      <trkpt lat="43.49341" lon="5.46259">
        <ele>297</ele>
        <time>2021-11-17T10:55:50Z</time>
      </trkpt>
      <trkpt lat="43.49343" lon="5.46258">
        <ele>297</ele>
        <time>2021-11-17T10:55:56Z</time>
      </trkpt>
      <trkpt lat="43.49343" lon="5.46259">
        <ele>297</ele>
        <time>2021-11-17T10:56:04Z</time>
      </trkpt>
      <trkpt lat="43.49346" lon="5.46258">
        <ele>297</ele>
        <time>2021-11-17T10:56:12Z</time>
      </trkpt>
      <trkpt lat="43.49346" lon="5.46258">
        <ele>297</ele>
        <time>2021-11-17T10:56:18Z</time>
      </trkpt>
      <trkpt lat="43.4934" lon="5.46261">
        <ele>297</ele>
        <time>2021-11-17T10:56:22Z</time>
      </trkpt>
      <trkpt lat="43.49339" lon="5.46261">
        <ele>297</ele>
        <time>2021-11-17T10:56:30Z</time>
      </trkpt>
      <trkpt lat="43.49331" lon="5.46267">
        <ele>296</ele>
        <time>2021-11-17T10:56:38Z</time>
      </trkpt>
      <trkpt lat="43.49327" lon="5.46272">
        <ele>294</ele>
        <time>2021-11-17T10:56:46Z</time>
      </trkpt>
      <trkpt lat="43.49323" lon="5.46279">
        <ele>293</ele>
        <time>2021-11-17T10:56:54Z</time>
      </trkpt>
      <trkpt lat="43.4932" lon="5.46288">
        <ele>293</ele>
        <time>2021-11-17T10:57:02Z</time>
      </trkpt>
      <trkpt lat="43.49315" lon="5.46295">
        <ele>293</ele>
        <time>2021-11-17T10:57:10Z</time>
      </trkpt>
      <trkpt lat="43.49312" lon="5.46303">
        <ele>293</ele>
        <time>2021-11-17T10:57:18Z</time>
      </trkpt>
      <trkpt lat="43.49306" lon="5.46312">
        <ele>292</ele>
        <time>2021-11-17T10:57:26Z</time>
      </trkpt>
      <trkpt lat="43.49301" lon="5.46327">
        <ele>292</ele>
        <time>2021-11-17T10:57:38Z</time>
      </trkpt>
      <trkpt lat="43.49296" lon="5.46341">
        <ele>291</ele>
        <time>2021-11-17T10:57:48Z</time>
      </trkpt>
      <trkpt lat="43.49297" lon="5.46348">
        <ele>291</ele>
        <time>2021-11-17T10:57:54Z</time>
      </trkpt>
      <trkpt lat="43.49295" lon="5.4636">
        <ele>291</ele>
        <time>2021-11-17T10:58:04Z</time>
      </trkpt>
      <trkpt lat="43.49292" lon="5.4637">
        <ele>291</ele>
        <time>2021-11-17T10:58:12Z</time>
      </trkpt>
      <trkpt lat="43.49287" lon="5.46382">
        <ele>289</ele>
        <time>2021-11-17T10:58:22Z</time>
      </trkpt>
      <trkpt lat="43.49285" lon="5.46391">
        <ele>289</ele>
        <time>2021-11-17T10:58:30Z</time>
      </trkpt>
      <trkpt lat="43.49282" lon="5.46394">
        <ele>288</ele>
        <time>2021-11-17T10:58:34Z</time>
      </trkpt>
      <trkpt lat="43.49282" lon="5.46396">
        <ele>288</ele>
        <time>2021-11-17T10:58:42Z</time>
      </trkpt>
      <trkpt lat="43.4927" lon="5.46401">
        <ele>286</ele>
        <time>2021-11-17T10:58:52Z</time>
      </trkpt>
      <trkpt lat="43.49263" lon="5.46404">
        <ele>284</ele>
        <time>2021-11-17T10:58:58Z</time>
      </trkpt>
      <trkpt lat="43.49252" lon="5.46409">
        <ele>283</ele>
        <time>2021-11-17T10:59:08Z</time>
      </trkpt>
      <trkpt lat="43.49241" lon="5.46416">
        <ele>282</ele>
        <time>2021-11-17T10:59:18Z</time>
      </trkpt>
      <trkpt lat="43.49233" lon="5.4642">
        <ele>282</ele>
        <time>2021-11-17T10:59:26Z</time>
      </trkpt>
      <trkpt lat="43.49227" lon="5.46424">
        <ele>282</ele>
        <time>2021-11-17T10:59:32Z</time>
      </trkpt>
      <trkpt lat="43.49213" lon="5.46426">
        <ele>282</ele>
        <time>2021-11-17T10:59:44Z</time>
      </trkpt>
      <trkpt lat="43.49202" lon="5.4643">
        <ele>283</ele>
        <time>2021-11-17T10:59:54Z</time>
      </trkpt>
      <trkpt lat="43.49192" lon="5.46432">
        <ele>283</ele>
        <time>2021-11-17T11:00:04Z</time>
      </trkpt>
      <trkpt lat="43.49188" lon="5.46435">
        <ele>284</ele>
        <time>2021-11-17T11:00:10Z</time>
      </trkpt>
      <trkpt lat="43.49181" lon="5.46443">
        <ele>285</ele>
        <time>2021-11-17T11:00:18Z</time>
      </trkpt>
      <trkpt lat="43.49174" lon="5.46451">
        <ele>286</ele>
        <time>2021-11-17T11:00:28Z</time>
      </trkpt>
      <trkpt lat="43.4917" lon="5.46451">
        <ele>286</ele>
        <time>2021-11-17T11:00:32Z</time>
      </trkpt>
      <trkpt lat="43.49165" lon="5.46447">
        <ele>287</ele>
        <time>2021-11-17T11:00:38Z</time>
      </trkpt>
      <trkpt lat="43.4916" lon="5.46451">
        <ele>287</ele>
        <time>2021-11-17T11:00:44Z</time>
      </trkpt>
      <trkpt lat="43.49154" lon="5.46458">
        <ele>288</ele>
        <time>2021-11-17T11:00:52Z</time>
      </trkpt>
      <trkpt lat="43.49145" lon="5.4646">
        <ele>289</ele>
        <time>2021-11-17T11:01:00Z</time>
      </trkpt>
      <trkpt lat="43.49137" lon="5.46464">
        <ele>291</ele>
        <time>2021-11-17T11:01:08Z</time>
      </trkpt>
      <trkpt lat="43.4913" lon="5.46465">
        <ele>291</ele>
        <time>2021-11-17T11:01:16Z</time>
      </trkpt>
      <trkpt lat="43.49119" lon="5.4646">
        <ele>291</ele>
        <time>2021-11-17T11:01:26Z</time>
      </trkpt>
      <trkpt lat="43.49114" lon="5.46462">
        <ele>291</ele>
        <time>2021-11-17T11:01:32Z</time>
      </trkpt>
      <trkpt lat="43.49107" lon="5.46466">
        <ele>292</ele>
        <time>2021-11-17T11:01:37Z</time>
      </trkpt>
      <trkpt lat="43.491" lon="5.46471">
        <ele>293</ele>
        <time>2021-11-17T11:01:45Z</time>
      </trkpt>
      <trkpt lat="43.49091" lon="5.46474">
        <ele>295</ele>
        <time>2021-11-17T11:01:53Z</time>
      </trkpt>
      <trkpt lat="43.49078" lon="5.46476">
        <ele>297</ele>
        <time>2021-11-17T11:02:07Z</time>
      </trkpt>
      <trkpt lat="43.4907" lon="5.46483">
        <ele>297</ele>
        <time>2021-11-17T11:02:19Z</time>
      </trkpt>
      <trkpt lat="43.49062" lon="5.46481">
        <ele>298</ele>
        <time>2021-11-17T11:02:27Z</time>
      </trkpt>
      <trkpt lat="43.49052" lon="5.46478">
        <ele>299</ele>
        <time>2021-11-17T11:02:37Z</time>
      </trkpt>
      <trkpt lat="43.49044" lon="5.46477">
        <ele>299</ele>
        <time>2021-11-17T11:02:47Z</time>
      </trkpt>
      <trkpt lat="43.49036" lon="5.46475">
        <ele>299</ele>
        <time>2021-11-17T11:02:55Z</time>
      </trkpt>
      <trkpt lat="43.49028" lon="5.46466">
        <ele>299</ele>
        <time>2021-11-17T11:03:03Z</time>
      </trkpt>
      <trkpt lat="43.49024" lon="5.46454">
        <ele>299</ele>
        <time>2021-11-17T11:03:15Z</time>
      </trkpt>
      <trkpt lat="43.49014" lon="5.46454">
        <ele>300</ele>
        <time>2021-11-17T11:03:23Z</time>
      </trkpt>
      <trkpt lat="43.49008" lon="5.46454">
        <ele>300</ele>
        <time>2021-11-17T11:03:29Z</time>
      </trkpt>
      <trkpt lat="43.48995" lon="5.46449">
        <ele>301</ele>
        <time>2021-11-17T11:03:41Z</time>
      </trkpt>
      <trkpt lat="43.48991" lon="5.46444">
        <ele>302</ele>
        <time>2021-11-17T11:03:47Z</time>
      </trkpt>
      <trkpt lat="43.48987" lon="5.46441">
        <ele>302</ele>
        <time>2021-11-17T11:03:53Z</time>
      </trkpt>
      <trkpt lat="43.48984" lon="5.46434">
        <ele>302</ele>
        <time>2021-11-17T11:03:59Z</time>
      </trkpt>
      <trkpt lat="43.48978" lon="5.46429">
        <ele>302</ele>
        <time>2021-11-17T11:04:05Z</time>
      </trkpt>
      <trkpt lat="43.48967" lon="5.46428">
        <ele>302</ele>
        <time>2021-11-17T11:04:17Z</time>
      </trkpt>
      <trkpt lat="43.48955" lon="5.46428">
        <ele>302</ele>
        <time>2021-11-17T11:04:29Z</time>
      </trkpt>
      <trkpt lat="43.48944" lon="5.46426">
        <ele>302</ele>
        <time>2021-11-17T11:04:37Z</time>
      </trkpt>
      <trkpt lat="43.48936" lon="5.46425">
        <ele>302</ele>
        <time>2021-11-17T11:04:47Z</time>
      </trkpt>
      <trkpt lat="43.48925" lon="5.46421">
        <ele>302</ele>
        <time>2021-11-17T11:04:55Z</time>
      </trkpt>
      <trkpt lat="43.48918" lon="5.4642">
        <ele>301</ele>
        <time>2021-11-17T11:05:05Z</time>
      </trkpt>
      <trkpt lat="43.48912" lon="5.4642">
        <ele>301</ele>
        <time>2021-11-17T11:05:11Z</time>
      </trkpt>
      <trkpt lat="43.48908" lon="5.46422">
        <ele>301</ele>
        <time>2021-11-17T11:05:15Z</time>
      </trkpt>
      <trkpt lat="43.48903" lon="5.4642">
        <ele>300</ele>
        <time>2021-11-17T11:05:23Z</time>
      </trkpt>
      <trkpt lat="43.489" lon="5.4641">
        <ele>299</ele>
        <time>2021-11-17T11:05:31Z</time>
      </trkpt>
      <trkpt lat="43.48898" lon="5.46403">
        <ele>298</ele>
        <time>2021-11-17T11:05:39Z</time>
      </trkpt>
      <trkpt lat="43.48894" lon="5.46401">
        <ele>298</ele>
        <time>2021-11-17T11:05:45Z</time>
      </trkpt>
      <trkpt lat="43.48894" lon="5.46392">
        <ele>297</ele>
        <time>2021-11-17T11:05:57Z</time>
      </trkpt>
      <trkpt lat="43.48893" lon="5.46389">
        <ele>297</ele>
        <time>2021-11-17T11:06:03Z</time>
      </trkpt>
      <trkpt lat="43.48887" lon="5.46388">
        <ele>296</ele>
        <time>2021-11-17T11:06:11Z</time>
      </trkpt>
      <trkpt lat="43.48879" lon="5.46387">
        <ele>296</ele>
        <time>2021-11-17T11:06:17Z</time>
      </trkpt>
      <trkpt lat="43.48876" lon="5.4639">
        <ele>296</ele>
        <time>2021-11-17T11:06:21Z</time>
      </trkpt>
      <trkpt lat="43.48876" lon="5.464">
        <ele>297</ele>
        <time>2021-11-17T11:06:27Z</time>
      </trkpt>
      <trkpt lat="43.48873" lon="5.46401">
        <ele>297</ele>
        <time>2021-11-17T11:06:31Z</time>
      </trkpt>
      <trkpt lat="43.48869" lon="5.46398">
        <ele>297</ele>
        <time>2021-11-17T11:06:37Z</time>
      </trkpt>
      <trkpt lat="43.48865" lon="5.46393">
        <ele>296</ele>
        <time>2021-11-17T11:06:43Z</time>
      </trkpt>
      <trkpt lat="43.48863" lon="5.46394">
        <ele>296</ele>
        <time>2021-11-17T11:06:49Z</time>
      </trkpt>
      <trkpt lat="43.48859" lon="5.46396">
        <ele>297</ele>
        <time>2021-11-17T11:06:57Z</time>
      </trkpt>
      <trkpt lat="43.48853" lon="5.46396">
        <ele>298</ele>
        <time>2021-11-17T11:07:03Z</time>
      </trkpt>
      <trkpt lat="43.48851" lon="5.46398">
        <ele>298</ele>
        <time>2021-11-17T11:07:17Z</time>
      </trkpt>
      <trkpt lat="43.4885" lon="5.46399">
        <ele>298</ele>
        <time>2021-11-17T11:07:25Z</time>
      </trkpt>
      <trkpt lat="43.48845" lon="5.46404">
        <ele>299</ele>
        <time>2021-11-17T11:07:33Z</time>
      </trkpt>
      <trkpt lat="43.48839" lon="5.46409">
        <ele>300</ele>
        <time>2021-11-17T11:07:41Z</time>
      </trkpt>
      <trkpt lat="43.48831" lon="5.46414">
        <ele>301</ele>
        <time>2021-11-17T11:07:51Z</time>
      </trkpt>
      <trkpt lat="43.48824" lon="5.4642">
        <ele>302</ele>
        <time>2021-11-17T11:07:59Z</time>
      </trkpt>
      <trkpt lat="43.4882" lon="5.46424">
        <ele>302</ele>
        <time>2021-11-17T11:08:05Z</time>
      </trkpt>
      <trkpt lat="43.48815" lon="5.46429">
        <ele>303</ele>
        <time>2021-11-17T11:08:13Z</time>
      </trkpt>
      <trkpt lat="43.48809" lon="5.46424">
        <ele>303</ele>
        <time>2021-11-17T11:08:21Z</time>
      </trkpt>
      <trkpt lat="43.48807" lon="5.4642">
        <ele>303</ele>
        <time>2021-11-17T11:08:29Z</time>
      </trkpt>
      <trkpt lat="43.48804" lon="5.46411">
        <ele>303</ele>
        <time>2021-11-17T11:08:39Z</time>
      </trkpt>
      <trkpt lat="43.48798" lon="5.4641">
        <ele>303</ele>
        <time>2021-11-17T11:08:47Z</time>
      </trkpt>
      <trkpt lat="43.48796" lon="5.46409">
        <ele>303</ele>
        <time>2021-11-17T11:08:59Z</time>
      </trkpt>
      <trkpt lat="43.48796" lon="5.46408">
        <ele>303</ele>
        <time>2021-11-17T11:09:16Z</time>
      </trkpt>
      <trkpt lat="43.48795" lon="5.46408">
        <ele>303</ele>
        <time>2021-11-17T11:09:26Z</time>
      </trkpt>
      <trkpt lat="43.48794" lon="5.46408">
        <ele>303</ele>
        <time>2021-11-17T11:09:32Z</time>
      </trkpt>
      <trkpt lat="43.48794" lon="5.46411">
        <ele>303</ele>
        <time>2021-11-17T11:09:44Z</time>
      </trkpt>
      <trkpt lat="43.48794" lon="5.46411">
        <ele>303</ele>
        <time>2021-11-17T11:10:06Z</time>
      </trkpt>
      <trkpt lat="43.48793" lon="5.46409">
        <ele>303</ele>
        <time>2021-11-17T11:10:20Z</time>
      </trkpt>
      <trkpt lat="43.48792" lon="5.46407">
        <ele>303</ele>
        <time>2021-11-17T11:10:40Z</time>
      </trkpt>
      <trkpt lat="43.4879" lon="5.46409">
        <ele>303</ele>
        <time>2021-11-17T11:10:46Z</time>
      </trkpt>
      <trkpt lat="43.48786" lon="5.46408">
        <ele>303</ele>
        <time>2021-11-17T11:10:50Z</time>
      </trkpt>
      <trkpt lat="43.48783" lon="5.46411">
        <ele>283</ele>
        <time>2021-11-17T11:10:56Z</time>
      </trkpt>
      <trkpt lat="43.4878" lon="5.46409">
        <ele>303</ele>
        <time>2021-11-17T11:11:04Z</time>
      </trkpt>
      <trkpt lat="43.48781" lon="5.4641">
        <ele>303</ele>
        <time>2021-11-17T11:11:12Z</time>
      </trkpt>
      <trkpt lat="43.48782" lon="5.46409">
        <ele>303</ele>
        <time>2021-11-17T11:11:16Z</time>
      </trkpt>
      <trkpt lat="43.48776" lon="5.46411">
        <ele>303</ele>
        <time>2021-11-17T11:11:22Z</time>
      </trkpt>
      <trkpt lat="43.48773" lon="5.46415">
        <ele>303</ele>
        <time>2021-11-17T11:11:28Z</time>
      </trkpt>
      <trkpt lat="43.48769" lon="5.46417">
        <ele>303</ele>
        <time>2021-11-17T11:11:32Z</time>
      </trkpt>
      <trkpt lat="43.48766" lon="5.46421">
        <ele>303</ele>
        <time>2021-11-17T11:11:38Z</time>
      </trkpt>
      <trkpt lat="43.48763" lon="5.46422">
        <ele>303</ele>
        <time>2021-11-17T11:11:48Z</time>
      </trkpt>
      <trkpt lat="43.48762" lon="5.46421">
        <ele>303</ele>
        <time>2021-11-17T11:12:18Z</time>
      </trkpt>
      <trkpt lat="43.4876" lon="5.46423">
        <ele>303</ele>
        <time>2021-11-17T11:12:30Z</time>
      </trkpt>
      <trkpt lat="43.48761" lon="5.46424">
        <ele>303</ele>
        <time>2021-11-17T11:12:46Z</time>
      </trkpt>
      <trkpt lat="43.48763" lon="5.46425">
        <ele>303</ele>
        <time>2021-11-17T11:13:02Z</time>
      </trkpt>
      <trkpt lat="43.48763" lon="5.46426">
        <ele>303</ele>
        <time>2021-11-17T11:13:34Z</time>
      </trkpt>
      <trkpt lat="43.48762" lon="5.46425">
        <ele>303</ele>
        <time>2021-11-17T11:13:46Z</time>
      </trkpt>
      <trkpt lat="43.48764" lon="5.46424">
        <ele>303</ele>
        <time>2021-11-17T11:13:56Z</time>
      </trkpt>
      <trkpt lat="43.48763" lon="5.46425">
        <ele>303</ele>
        <time>2021-11-17T11:14:20Z</time>
      </trkpt>
      <trkpt lat="43.48761" lon="5.46423">
        <ele>303</ele>
        <time>2021-11-17T11:14:25Z</time>
      </trkpt>
      <trkpt lat="43.48758" lon="5.46419">
        <ele>302</ele>
        <time>2021-11-17T11:14:29Z</time>
      </trkpt>
      <trkpt lat="43.48751" lon="5.46415">
        <ele>301</ele>
        <time>2021-11-17T11:14:35Z</time>
      </trkpt>
      <trkpt lat="43.48745" lon="5.46413">
        <ele>301</ele>
        <time>2021-11-17T11:14:41Z</time>
      </trkpt>
      <trkpt lat="43.48735" lon="5.46409">
        <ele>299</ele>
        <time>2021-11-17T11:14:51Z</time>
      </trkpt>
      <trkpt lat="43.48728" lon="5.46408">
        <ele>299</ele>
        <time>2021-11-17T11:14:59Z</time>
      </trkpt>
      <trkpt lat="43.48721" lon="5.46396">
        <ele>297</ele>
        <time>2021-11-17T11:15:11Z</time>
      </trkpt>
      <trkpt lat="43.48716" lon="5.46388">
        <ele>296</ele>
        <time>2021-11-17T11:15:21Z</time>
      </trkpt>
      <trkpt lat="43.48703" lon="5.46378">
        <ele>295</ele>
        <time>2021-11-17T11:15:39Z</time>
      </trkpt>
      <trkpt lat="43.48694" lon="5.46366">
        <ele>295</ele>
        <time>2021-11-17T11:15:51Z</time>
      </trkpt>
      <trkpt lat="43.48686" lon="5.46363">
        <ele>295</ele>
        <time>2021-11-17T11:15:57Z</time>
      </trkpt>
      <trkpt lat="43.48678" lon="5.46356">
        <ele>295</ele>
        <time>2021-11-17T11:16:05Z</time>
      </trkpt>
      <trkpt lat="43.4867" lon="5.46353">
        <ele>297</ele>
        <time>2021-11-17T11:16:13Z</time>
      </trkpt>
      <trkpt lat="43.48663" lon="5.46347">
        <ele>298</ele>
        <time>2021-11-17T11:16:23Z</time>
      </trkpt>
      <trkpt lat="43.48661" lon="5.46346">
        <ele>298</ele>
        <time>2021-11-17T11:16:27Z</time>
      </trkpt>
      <trkpt lat="43.48655" lon="5.46345">
        <ele>299</ele>
        <time>2021-11-17T11:16:33Z</time>
      </trkpt>
      <trkpt lat="43.48645" lon="5.46342">
        <ele>300</ele>
        <time>2021-11-17T11:16:45Z</time>
      </trkpt>
      <trkpt lat="43.48636" lon="5.46343">
        <ele>301</ele>
        <time>2021-11-17T11:16:55Z</time>
      </trkpt>
      <trkpt lat="43.48628" lon="5.46347">
        <ele>302</ele>
        <time>2021-11-17T11:17:05Z</time>
      </trkpt>
      <trkpt lat="43.48619" lon="5.46349">
        <ele>303</ele>
        <time>2021-11-17T11:17:13Z</time>
      </trkpt>
      <trkpt lat="43.48612" lon="5.4635">
        <ele>303</ele>
        <time>2021-11-17T11:17:21Z</time>
      </trkpt>
      <trkpt lat="43.48604" lon="5.4635">
        <ele>304</ele>
        <time>2021-11-17T11:17:29Z</time>
      </trkpt>
      <trkpt lat="43.48598" lon="5.46352">
        <ele>304</ele>
        <time>2021-11-17T11:17:37Z</time>
      </trkpt>
      <trkpt lat="43.48594" lon="5.46351">
        <ele>305</ele>
        <time>2021-11-17T11:17:43Z</time>
      </trkpt>
      <trkpt lat="43.48584" lon="5.4634">
        <ele>306</ele>
        <time>2021-11-17T11:17:55Z</time>
      </trkpt>
      <trkpt lat="43.48571" lon="5.46335">
        <ele>305</ele>
        <time>2021-11-17T11:18:05Z</time>
      </trkpt>
      <trkpt lat="43.48563" lon="5.46326">
        <ele>304</ele>
        <time>2021-11-17T11:18:15Z</time>
      </trkpt>
      <trkpt lat="43.48559" lon="5.46322">
        <ele>304</ele>
        <time>2021-11-17T11:18:23Z</time>
      </trkpt>
      <trkpt lat="43.48551" lon="5.46316">
        <ele>303</ele>
        <time>2021-11-17T11:18:33Z</time>
      </trkpt>
      <trkpt lat="43.48545" lon="5.46313">
        <ele>302</ele>
        <time>2021-11-17T11:18:39Z</time>
      </trkpt>
      <trkpt lat="43.48535" lon="5.46311">
        <ele>301</ele>
        <time>2021-11-17T11:18:47Z</time>
      </trkpt>
      <trkpt lat="43.48527" lon="5.46312">
        <ele>301</ele>
        <time>2021-11-17T11:18:55Z</time>
      </trkpt>
      <trkpt lat="43.48524" lon="5.46308">
        <ele>300</ele>
        <time>2021-11-17T11:19:01Z</time>
      </trkpt>
      <trkpt lat="43.4852" lon="5.46306">
        <ele>299</ele>
        <time>2021-11-17T11:19:09Z</time>
      </trkpt>
      <trkpt lat="43.48516" lon="5.4631">
        <ele>298</ele>
        <time>2021-11-17T11:19:17Z</time>
      </trkpt>
      <trkpt lat="43.48516" lon="5.46312">
        <ele>297</ele>
        <time>2021-11-17T11:19:39Z</time>
      </trkpt>
      <trkpt lat="43.48518" lon="5.46307">
        <ele>298</ele>
        <time>2021-11-17T11:19:45Z</time>
      </trkpt>
      <trkpt lat="43.4852" lon="5.463">
        <ele>299</ele>
        <time>2021-11-17T11:19:49Z</time>
      </trkpt>
      <trkpt lat="43.48521" lon="5.463">
        <ele>299</ele>
        <time>2021-11-17T11:19:59Z</time>
      </trkpt>
      <trkpt lat="43.48521" lon="5.46304">
        <ele>299</ele>
        <time>2021-11-17T11:20:07Z</time>
      </trkpt>
      <trkpt lat="43.48521" lon="5.46306">
        <ele>299</ele>
        <time>2021-11-17T11:20:43Z</time>
      </trkpt>
      <trkpt lat="43.48519" lon="5.46308">
        <ele>299</ele>
        <time>2021-11-17T11:20:59Z</time>
      </trkpt>
      <trkpt lat="43.48518" lon="5.46309">
        <ele>298</ele>
        <time>2021-11-17T11:21:07Z</time>
      </trkpt>
      <trkpt lat="43.48517" lon="5.46311">
        <ele>298</ele>
        <time>2021-11-17T11:21:19Z</time>
      </trkpt>
      <trkpt lat="43.48516" lon="5.46315">
        <ele>297</ele>
        <time>2021-11-17T11:21:29Z</time>
      </trkpt>
      <trkpt lat="43.48516" lon="5.46316">
        <ele>297</ele>
        <time>2021-11-17T11:22:15Z</time>
      </trkpt>
      <trkpt lat="43.48517" lon="5.46316">
        <ele>297</ele>
        <time>2021-11-17T11:22:39Z</time>
      </trkpt>
      <trkpt lat="43.48516" lon="5.46318">
        <ele>297</ele>
        <time>2021-11-17T11:22:57Z</time>
      </trkpt>
      <trkpt lat="43.48517" lon="5.4632">
        <ele>296</ele>
        <time>2021-11-17T11:23:11Z</time>
      </trkpt>
      <trkpt lat="43.48518" lon="5.4632">
        <ele>297</ele>
        <time>2021-11-17T11:23:32Z</time>
      </trkpt>
      <trkpt lat="43.48518" lon="5.4632">
        <ele>297</ele>
        <time>2021-11-17T11:23:36Z</time>
      </trkpt>
      <trkpt lat="43.48518" lon="5.4632">
        <ele>297</ele>
        <time>2021-11-17T11:23:36Z</time>
      </trkpt>
      <trkpt lat="43.48524" lon="5.46311">
        <ele>299</ele>
        <time>2021-11-17T11:28:41Z</time>
      </trkpt>
      <trkpt lat="43.48523" lon="5.46309">
        <ele>300</ele>
        <time>2021-11-17T11:28:49Z</time>
      </trkpt>
      <trkpt lat="43.48522" lon="5.46309">
        <ele>299</ele>
        <time>2021-11-17T11:28:51Z</time>
      </trkpt>
      <trkpt lat="43.48522" lon="5.46309">
        <ele>299</ele>
        <time>2021-11-17T11:28:51Z</time>
      </trkpt>
      <trkpt lat="43.48515" lon="5.46309">
        <ele>297</ele>
        <time>2021-11-17T11:34:49Z</time>
      </trkpt>
      <trkpt lat="43.48515" lon="5.46306">
        <ele>298</ele>
        <time>2021-11-17T11:34:57Z</time>
      </trkpt>
      <trkpt lat="43.48514" lon="5.46307">
        <ele>297</ele>
        <time>2021-11-17T11:35:09Z</time>
      </trkpt>
      <trkpt lat="43.48516" lon="5.46307">
        <ele>298</ele>
        <time>2021-11-17T11:35:17Z</time>
      </trkpt>
      <trkpt lat="43.48515" lon="5.46306">
        <ele>298</ele>
        <time>2021-11-17T11:35:27Z</time>
      </trkpt>
      <trkpt lat="43.48514" lon="5.46307">
        <ele>297</ele>
        <time>2021-11-17T11:35:37Z</time>
      </trkpt>
      <trkpt lat="43.48514" lon="5.46307">
        <ele>297</ele>
        <time>2021-11-17T11:35:37Z</time>
      </trkpt>
      <trkpt lat="43.48523" lon="5.46311">
        <ele>299</ele>
        <time>2021-11-17T11:39:10Z</time>
      </trkpt>
      <trkpt lat="43.4852" lon="5.46308">
        <ele>299</ele>
        <time>2021-11-17T11:39:18Z</time>
      </trkpt>
      <trkpt lat="43.48519" lon="5.46307">
        <ele>299</ele>
        <time>2021-11-17T11:39:26Z</time>
      </trkpt>
      <trkpt lat="43.48515" lon="5.46302">
        <ele>298</ele>
        <time>2021-11-17T11:39:32Z</time>
      </trkpt>
      <trkpt lat="43.48515" lon="5.46302">
        <ele>298</ele>
        <time>2021-11-17T11:39:40Z</time>
      </trkpt>
      <trkpt lat="43.48513" lon="5.463">
        <ele>297</ele>
        <time>2021-11-17T11:39:46Z</time>
      </trkpt>
      <trkpt lat="43.48514" lon="5.46304">
        <ele>297</ele>
        <time>2021-11-17T11:39:48Z</time>
      </trkpt>
      <trkpt lat="43.48512" lon="5.46302">
        <ele>297</ele>
        <time>2021-11-17T11:39:54Z</time>
      </trkpt>
      <trkpt lat="43.48512" lon="5.46306">
        <ele>297</ele>
        <time>2021-11-17T11:40:00Z</time>
      </trkpt>
      <trkpt lat="43.48513" lon="5.46306">
        <ele>297</ele>
        <time>2021-11-17T11:40:09Z</time>
      </trkpt>
      <trkpt lat="43.48512" lon="5.46307">
        <ele>297</ele>
        <time>2021-11-17T11:40:31Z</time>
      </trkpt>
      <trkpt lat="43.4851" lon="5.46308">
        <ele>296</ele>
        <time>2021-11-17T11:40:47Z</time>
      </trkpt>
      <trkpt lat="43.48509" lon="5.46308">
        <ele>296</ele>
        <time>2021-11-17T11:40:51Z</time>
      </trkpt>
      <trkpt lat="43.48511" lon="5.46309">
        <ele>296</ele>
        <time>2021-11-17T11:40:57Z</time>
      </trkpt>
      <trkpt lat="43.48514" lon="5.46311">
        <ele>297</ele>
        <time>2021-11-17T11:41:03Z</time>
      </trkpt>
      <trkpt lat="43.48514" lon="5.46312">
        <ele>297</ele>
        <time>2021-11-17T11:41:21Z</time>
      </trkpt>
      <trkpt lat="43.48513" lon="5.46312">
        <ele>296</ele>
        <time>2021-11-17T11:41:29Z</time>
      </trkpt>
      <trkpt lat="43.48514" lon="5.46311">
        <ele>297</ele>
        <time>2021-11-17T11:41:43Z</time>
      </trkpt>
      <trkpt lat="43.48519" lon="5.46312">
        <ele>298</ele>
        <time>2021-11-17T11:41:51Z</time>
      </trkpt>
      <trkpt lat="43.48519" lon="5.46312">
        <ele>298</ele>
        <time>2021-11-17T11:42:03Z</time>
      </trkpt>
      <trkpt lat="43.48518" lon="5.46311">
        <ele>298</ele>
        <time>2021-11-17T11:42:17Z</time>
      </trkpt>
      <trkpt lat="43.48518" lon="5.4631">
        <ele>298</ele>
        <time>2021-11-17T11:42:25Z</time>
      </trkpt>
      <trkpt lat="43.48521" lon="5.4632">
        <ele>298</ele>
        <time>2021-11-17T11:42:29Z</time>
      </trkpt>
      <trkpt lat="43.48519" lon="5.46323">
        <ele>297</ele>
        <time>2021-11-17T11:42:41Z</time>
      </trkpt>
      <trkpt lat="43.48519" lon="5.46322">
        <ele>297</ele>
        <time>2021-11-17T11:42:51Z</time>
      </trkpt>
      <trkpt lat="43.4852" lon="5.46319">
        <ele>298</ele>
        <time>2021-11-17T11:42:59Z</time>
      </trkpt>
      <trkpt lat="43.48521" lon="5.46319">
        <ele>298</ele>
        <time>2021-11-17T11:43:19Z</time>
      </trkpt>
      <trkpt lat="43.48521" lon="5.4632">
        <ele>298</ele>
        <time>2021-11-17T11:43:27Z</time>
      </trkpt>
      <trkpt lat="43.4852" lon="5.46321">
        <ele>297</ele>
        <time>2021-11-17T11:43:33Z</time>
      </trkpt>
      <trkpt lat="43.48522" lon="5.46321">
        <ele>298</ele>
        <time>2021-11-17T11:43:45Z</time>
      </trkpt>
      <trkpt lat="43.4852" lon="5.46321">
        <ele>298</ele>
        <time>2021-11-17T11:43:59Z</time>
      </trkpt>
      <trkpt lat="43.48521" lon="5.46319">
        <ele>298</ele>
        <time>2021-11-17T11:44:15Z</time>
      </trkpt>
      <trkpt lat="43.48521" lon="5.46318">
        <ele>298</ele>
        <time>2021-11-17T11:44:21Z</time>
      </trkpt>
      <trkpt lat="43.4852" lon="5.4632">
        <ele>297</ele>
        <time>2021-11-17T11:44:27Z</time>
      </trkpt>
      <trkpt lat="43.48521" lon="5.46319">
        <ele>298</ele>
        <time>2021-11-17T11:44:40Z</time>
      </trkpt>
      <trkpt lat="43.48518" lon="5.4632">
        <ele>297</ele>
        <time>2021-11-17T11:44:46Z</time>
      </trkpt>
      <trkpt lat="43.4852" lon="5.46317">
        <ele>297</ele>
        <time>2021-11-17T11:44:56Z</time>
      </trkpt>
      <trkpt lat="43.48518" lon="5.46317">
        <ele>297</ele>
        <time>2021-11-17T11:45:04Z</time>
      </trkpt>
      <trkpt lat="43.48515" lon="5.46318">
        <ele>296</ele>
        <time>2021-11-17T11:45:10Z</time>
      </trkpt>
      <trkpt lat="43.48513" lon="5.46317">
        <ele>296</ele>
        <time>2021-11-17T11:45:15Z</time>
      </trkpt>
      <trkpt lat="43.48512" lon="5.46317">
        <ele>296</ele>
        <time>2021-11-17T11:45:25Z</time>
      </trkpt>
      <trkpt lat="43.48509" lon="5.46311">
        <ele>295</ele>
        <time>2021-11-17T11:45:33Z</time>
      </trkpt>
      <trkpt lat="43.48508" lon="5.46311">
        <ele>295</ele>
        <time>2021-11-17T11:45:47Z</time>
      </trkpt>
      <trkpt lat="43.48509" lon="5.46312">
        <ele>295</ele>
        <time>2021-11-17T11:45:49Z</time>
      </trkpt>
      <trkpt lat="43.48513" lon="5.46319">
        <ele>295</ele>
        <time>2021-11-17T11:45:51Z</time>
      </trkpt>
      <trkpt lat="43.48515" lon="5.4632">
        <ele>296</ele>
        <time>2021-11-17T11:46:01Z</time>
      </trkpt>
      <trkpt lat="43.48516" lon="5.46318">
        <ele>296</ele>
        <time>2021-11-17T11:46:11Z</time>
      </trkpt>
      <trkpt lat="43.48517" lon="5.46317">
        <ele>297</ele>
        <time>2021-11-17T11:46:19Z</time>
      </trkpt>
      <trkpt lat="43.48515" lon="5.46315">
        <ele>297</ele>
        <time>2021-11-17T11:46:33Z</time>
      </trkpt>
      <trkpt lat="43.48515" lon="5.46312">
        <ele>297</ele>
        <time>2021-11-17T11:46:41Z</time>
      </trkpt>
      <trkpt lat="43.48515" lon="5.46311">
        <ele>297</ele>
        <time>2021-11-17T11:46:49Z</time>
      </trkpt>
      <trkpt lat="43.48513" lon="5.46311">
        <ele>297</ele>
        <time>2021-11-17T11:46:53Z</time>
      </trkpt>
      <trkpt lat="43.48515" lon="5.46313">
        <ele>297</ele>
        <time>2021-11-17T11:46:59Z</time>
      </trkpt>
      <trkpt lat="43.48512" lon="5.46316">
        <ele>296</ele>
        <time>2021-11-17T11:47:15Z</time>
      </trkpt>
      <trkpt lat="43.48512" lon="5.46316">
        <ele>296</ele>
        <time>2021-11-17T11:47:27Z</time>
      </trkpt>
      <trkpt lat="43.48513" lon="5.46315">
        <ele>296</ele>
        <time>2021-11-17T11:47:43Z</time>
      </trkpt>
      <trkpt lat="43.48515" lon="5.46313">
        <ele>297</ele>
        <time>2021-11-17T11:47:55Z</time>
      </trkpt>
      <trkpt lat="43.48515" lon="5.46312">
        <ele>297</ele>
        <time>2021-11-17T11:48:05Z</time>
      </trkpt>
      <trkpt lat="43.48511" lon="5.46311">
        <ele>296</ele>
        <time>2021-11-17T11:48:13Z</time>
      </trkpt>
      <trkpt lat="43.48512" lon="5.46312">
        <ele>296</ele>
        <time>2021-11-17T11:48:19Z</time>
      </trkpt>
      <trkpt lat="43.4851" lon="5.46315">
        <ele>295</ele>
        <time>2021-11-17T11:48:27Z</time>
      </trkpt>
      <trkpt lat="43.4851" lon="5.46314">
        <ele>295</ele>
        <time>2021-11-17T11:48:43Z</time>
      </trkpt>
      <trkpt lat="43.4851" lon="5.46317">
        <ele>295</ele>
        <time>2021-11-17T11:48:51Z</time>
      </trkpt>
      <trkpt lat="43.48509" lon="5.46314">
        <ele>295</ele>
        <time>2021-11-17T11:49:01Z</time>
      </trkpt>
      <trkpt lat="43.48508" lon="5.46313">
        <ele>295</ele>
        <time>2021-11-17T11:49:11Z</time>
      </trkpt>
      <trkpt lat="43.48507" lon="5.46312">
        <ele>295</ele>
        <time>2021-11-17T11:49:19Z</time>
      </trkpt>
      <trkpt lat="43.48505" lon="5.46312">
        <ele>294</ele>
        <time>2021-11-17T11:49:31Z</time>
      </trkpt>
      <trkpt lat="43.48506" lon="5.46311">
        <ele>295</ele>
        <time>2021-11-17T11:49:43Z</time>
      </trkpt>
      <trkpt lat="43.48507" lon="5.4631">
        <ele>295</ele>
        <time>2021-11-17T11:49:51Z</time>
      </trkpt>
      <trkpt lat="43.48509" lon="5.4631">
        <ele>296</ele>
        <time>2021-11-17T11:49:59Z</time>
      </trkpt>
      <trkpt lat="43.48509" lon="5.46308">
        <ele>296</ele>
        <time>2021-11-17T11:50:15Z</time>
      </trkpt>
      <trkpt lat="43.48509" lon="5.46309">
        <ele>296</ele>
        <time>2021-11-17T11:50:29Z</time>
      </trkpt>
      <trkpt lat="43.48509" lon="5.46306">
        <ele>296</ele>
        <time>2021-11-17T11:50:33Z</time>
      </trkpt>
      <trkpt lat="43.48505" lon="5.46308">
        <ele>295</ele>
        <time>2021-11-17T11:50:39Z</time>
      </trkpt>
      <trkpt lat="43.48505" lon="5.46309">
        <ele>295</ele>
        <time>2021-11-17T11:50:45Z</time>
      </trkpt>
      <trkpt lat="43.48506" lon="5.46309">
        <ele>295</ele>
        <time>2021-11-17T11:50:59Z</time>
      </trkpt>
      <trkpt lat="43.48505" lon="5.46308">
        <ele>295</ele>
        <time>2021-11-17T11:51:09Z</time>
      </trkpt>
      <trkpt lat="43.48506" lon="5.46306">
        <ele>295</ele>
        <time>2021-11-17T11:51:19Z</time>
      </trkpt>
      <trkpt lat="43.48506" lon="5.46306">
        <ele>295</ele>
        <time>2021-11-17T11:51:31Z</time>
      </trkpt>
      <trkpt lat="43.48507" lon="5.46307">
        <ele>295</ele>
        <time>2021-11-17T11:51:44Z</time>
      </trkpt>
      <trkpt lat="43.48509" lon="5.46308">
        <ele>296</ele>
        <time>2021-11-17T11:51:58Z</time>
      </trkpt>
      <trkpt lat="43.48511" lon="5.46309">
        <ele>297</ele>
        <time>2021-11-17T11:52:04Z</time>
      </trkpt>
      <trkpt lat="43.4851" lon="5.46314">
        <ele>296</ele>
        <time>2021-11-17T11:52:08Z</time>
      </trkpt>
      <trkpt lat="43.48511" lon="5.46315">
        <ele>295</ele>
        <time>2021-11-17T11:52:14Z</time>
      </trkpt>
      <trkpt lat="43.48518" lon="5.46324">
        <ele>296</ele>
        <time>2021-11-17T12:00:20Z</time>
      </trkpt>
      <trkpt lat="43.48518" lon="5.46336">
        <ele>295</ele>
        <time>2021-11-17T12:04:08Z</time>
      </trkpt>
      <trkpt lat="43.48519" lon="5.46323">
        <ele>297</ele>
        <time>2021-11-17T12:04:48Z</time>
      </trkpt>
      <trkpt lat="43.48515" lon="5.46297">
        <ele>298</ele>
        <time>2021-11-17T12:05:05Z</time>
      </trkpt>
      <trkpt lat="43.48505" lon="5.46274">
        <ele>297</ele>
        <time>2021-11-17T12:05:22Z</time>
      </trkpt>
      <trkpt lat="43.48501" lon="5.46261">
        <ele>296</ele>
        <time>2021-11-17T12:05:29Z</time>
      </trkpt>
      <trkpt lat="43.48495" lon="5.46251">
        <ele>296</ele>
        <time>2021-11-17T12:05:37Z</time>
      </trkpt>
      <trkpt lat="43.48484" lon="5.46215">
        <ele>296</ele>
        <time>2021-11-17T12:06:06Z</time>
      </trkpt>
      <trkpt lat="43.48476" lon="5.46177">
        <ele>295</ele>
        <time>2021-11-17T12:06:39Z</time>
      </trkpt>
      <trkpt lat="43.4847" lon="5.46166">
        <ele>294</ele>
        <time>2021-11-17T12:06:48Z</time>
      </trkpt>
      <trkpt lat="43.48463" lon="5.46159">
        <ele>294</ele>
        <time>2021-11-17T12:06:57Z</time>
      </trkpt>
      <trkpt lat="43.48445" lon="5.4615">
        <ele>293</ele>
        <time>2021-11-17T12:07:22Z</time>
      </trkpt>
      <trkpt lat="43.48426" lon="5.46147">
        <ele>292</ele>
        <time>2021-11-17T12:07:39Z</time>
      </trkpt>
      <trkpt lat="43.48399" lon="5.46139">
        <ele>290</ele>
        <time>2021-11-17T12:08:08Z</time>
      </trkpt>
      <trkpt lat="43.4838" lon="5.46134">
        <ele>290</ele>
        <time>2021-11-17T12:08:27Z</time>
      </trkpt>
      <trkpt lat="43.48364" lon="5.46118">
        <ele>291</ele>
        <time>2021-11-17T12:08:46Z</time>
      </trkpt>
      <trkpt lat="43.48347" lon="5.46088">
        <ele>291</ele>
        <time>2021-11-17T12:09:09Z</time>
      </trkpt>
      <trkpt lat="43.48342" lon="5.46076">
        <ele>292</ele>
        <time>2021-11-17T12:09:23Z</time>
      </trkpt>
      <trkpt lat="43.4833" lon="5.46054">
        <ele>294</ele>
        <time>2021-11-17T12:09:43Z</time>
      </trkpt>
      <trkpt lat="43.48328" lon="5.46041">
        <ele>293</ele>
        <time>2021-11-17T12:09:52Z</time>
      </trkpt>
      <trkpt lat="43.48325" lon="5.46028">
        <ele>292</ele>
        <time>2021-11-17T12:10:09Z</time>
      </trkpt>
      <trkpt lat="43.48326" lon="5.46015">
        <ele>292</ele>
        <time>2021-11-17T12:10:17Z</time>
      </trkpt>
      <trkpt lat="43.48322" lon="5.46002">
        <ele>292</ele>
        <time>2021-11-17T12:10:26Z</time>
      </trkpt>
      <trkpt lat="43.48322" lon="5.45975">
        <ele>292</ele>
        <time>2021-11-17T12:10:40Z</time>
      </trkpt>
      <trkpt lat="43.48315" lon="5.45937">
        <ele>290</ele>
        <time>2021-11-17T12:11:05Z</time>
      </trkpt>
      <trkpt lat="43.4831" lon="5.45913">
        <ele>289</ele>
        <time>2021-11-17T12:11:22Z</time>
      </trkpt>
      <trkpt lat="43.48303" lon="5.45889">
        <ele>289</ele>
        <time>2021-11-17T12:11:39Z</time>
      </trkpt>
      <trkpt lat="43.48301" lon="5.45863">
        <ele>289</ele>
        <time>2021-11-17T12:12:00Z</time>
      </trkpt>
      <trkpt lat="43.48298" lon="5.45837">
        <ele>288</ele>
        <time>2021-11-17T12:12:17Z</time>
      </trkpt>
      <trkpt lat="43.48293" lon="5.45798">
        <ele>285</ele>
        <time>2021-11-17T12:12:45Z</time>
      </trkpt>
      <trkpt lat="43.48286" lon="5.45773">
        <ele>283</ele>
        <time>2021-11-17T12:13:04Z</time>
      </trkpt>
      <trkpt lat="43.48275" lon="5.45752">
        <ele>282</ele>
        <time>2021-11-17T12:13:22Z</time>
      </trkpt>
      <trkpt lat="43.48271" lon="5.4574">
        <ele>282</ele>
        <time>2021-11-17T12:13:35Z</time>
      </trkpt>
      <trkpt lat="43.48269" lon="5.45727">
        <ele>281</ele>
        <time>2021-11-17T12:13:43Z</time>
      </trkpt>
      <trkpt lat="43.48264" lon="5.45716">
        <ele>280</ele>
        <time>2021-11-17T12:13:56Z</time>
      </trkpt>
      <trkpt lat="43.48244" lon="5.4571">
        <ele>281</ele>
        <time>2021-11-17T12:14:18Z</time>
      </trkpt>
      <trkpt lat="43.48226" lon="5.457">
        <ele>282</ele>
        <time>2021-11-17T12:14:38Z</time>
      </trkpt>
      <trkpt lat="43.48216" lon="5.45697">
        <ele>283</ele>
        <time>2021-11-17T12:14:47Z</time>
      </trkpt>
      <trkpt lat="43.48197" lon="5.45698">
        <ele>284</ele>
        <time>2021-11-17T12:15:07Z</time>
      </trkpt>
      <trkpt lat="43.48179" lon="5.45688">
        <ele>285</ele>
        <time>2021-11-17T12:15:25Z</time>
      </trkpt>
      <trkpt lat="43.48163" lon="5.45675">
        <ele>285</ele>
        <time>2021-11-17T12:15:43Z</time>
      </trkpt>
      <trkpt lat="43.48146" lon="5.45665">
        <ele>286</ele>
        <time>2021-11-17T12:16:02Z</time>
      </trkpt>
      <trkpt lat="43.48127" lon="5.45659">
        <ele>286</ele>
        <time>2021-11-17T12:16:19Z</time>
      </trkpt>
      <trkpt lat="43.48111" lon="5.45643">
        <ele>285</ele>
        <time>2021-11-17T12:16:35Z</time>
      </trkpt>
      <trkpt lat="43.48097" lon="5.45625">
        <ele>285</ele>
        <time>2021-11-17T12:16:53Z</time>
      </trkpt>
      <trkpt lat="43.48078" lon="5.4562">
        <ele>285</ele>
        <time>2021-11-17T12:17:11Z</time>
      </trkpt>
      <trkpt lat="43.48068" lon="5.45621">
        <ele>285</ele>
        <time>2021-11-17T12:17:19Z</time>
      </trkpt>
      <trkpt lat="43.48054" lon="5.45604">
        <ele>284</ele>
        <time>2021-11-17T12:17:37Z</time>
      </trkpt>
      <trkpt lat="43.48046" lon="5.45598">
        <ele>284</ele>
        <time>2021-11-17T12:17:58Z</time>
      </trkpt>
      <trkpt lat="43.48029" lon="5.45585">
        <ele>283</ele>
        <time>2021-11-17T12:18:15Z</time>
      </trkpt>
      <trkpt lat="43.48022" lon="5.45574">
        <ele>282</ele>
        <time>2021-11-17T12:18:26Z</time>
      </trkpt>
      <trkpt lat="43.48022" lon="5.4556">
        <ele>281</ele>
        <time>2021-11-17T12:18:37Z</time>
      </trkpt>
      <trkpt lat="43.48009" lon="5.45541">
        <ele>280</ele>
        <time>2021-11-17T12:18:52Z</time>
      </trkpt>
      <trkpt lat="43.47988" lon="5.45515">
        <ele>278</ele>
        <time>2021-11-17T12:19:18Z</time>
      </trkpt>
      <trkpt lat="43.47973" lon="5.45499">
        <ele>277</ele>
        <time>2021-11-17T12:19:37Z</time>
      </trkpt>
      <trkpt lat="43.4796" lon="5.45479">
        <ele>275</ele>
        <time>2021-11-17T12:19:55Z</time>
      </trkpt>
      <trkpt lat="43.47946" lon="5.45463">
        <ele>274</ele>
        <time>2021-11-17T12:20:11Z</time>
      </trkpt>
      <trkpt lat="43.4793" lon="5.45431">
        <ele>272</ele>
        <time>2021-11-17T12:20:40Z</time>
      </trkpt>
      <trkpt lat="43.47911" lon="5.45401">
        <ele>270</ele>
        <time>2021-11-17T12:21:11Z</time>
      </trkpt>
      <trkpt lat="43.47895" lon="5.45384">
        <ele>268</ele>
        <time>2021-11-17T12:21:26Z</time>
      </trkpt>
      <trkpt lat="43.47881" lon="5.4537">
        <ele>268</ele>
        <time>2021-11-17T12:21:43Z</time>
      </trkpt>
      <trkpt lat="43.47865" lon="5.45354">
        <ele>268</ele>
        <time>2021-11-17T12:22:01Z</time>
      </trkpt>
      <trkpt lat="43.4785" lon="5.45339">
        <ele>268</ele>
        <time>2021-11-17T12:22:17Z</time>
      </trkpt>
      <trkpt lat="43.47827" lon="5.45316">
        <ele>266</ele>
        <time>2021-11-17T12:22:46Z</time>
      </trkpt>
      <trkpt lat="43.47809" lon="5.45305">
        <ele>265</ele>
        <time>2021-11-17T12:23:06Z</time>
      </trkpt>
      <trkpt lat="43.47792" lon="5.45291">
        <ele>264</ele>
        <time>2021-11-17T12:23:24Z</time>
      </trkpt>
      <trkpt lat="43.47779" lon="5.45272">
        <ele>261</ele>
        <time>2021-11-17T12:23:49Z</time>
      </trkpt>
      <trkpt lat="43.47767" lon="5.45253">
        <ele>261</ele>
        <time>2021-11-17T12:24:09Z</time>
      </trkpt>
      <trkpt lat="43.47758" lon="5.45252">
        <ele>261</ele>
        <time>2021-11-17T12:24:16Z</time>
      </trkpt>
      <trkpt lat="43.4775" lon="5.45245">
        <ele>261</ele>
        <time>2021-11-17T12:24:27Z</time>
      </trkpt>
      <trkpt lat="43.47754" lon="5.45233">
        <ele>262</ele>
        <time>2021-11-17T12:24:36Z</time>
      </trkpt>
      <trkpt lat="43.47763" lon="5.4523">
        <ele>263</ele>
        <time>2021-11-17T12:24:45Z</time>
      </trkpt>
      <trkpt lat="43.47764" lon="5.45217">
        <ele>264</ele>
        <time>2021-11-17T12:25:16Z</time>
      </trkpt>
      <trkpt lat="43.47758" lon="5.45208">
        <ele>265</ele>
        <time>2021-11-17T12:25:28Z</time>
      </trkpt>
      <trkpt lat="43.47758" lon="5.45194">
        <ele>266</ele>
        <time>2021-11-17T12:25:39Z</time>
      </trkpt>
      <trkpt lat="43.47767" lon="5.45173">
        <ele>267</ele>
        <time>2021-11-17T12:26:03Z</time>
      </trkpt>
      <trkpt lat="43.47775" lon="5.45164">
        <ele>267</ele>
        <time>2021-11-17T12:26:12Z</time>
      </trkpt>
      <trkpt lat="43.47787" lon="5.45145">
        <ele>271</ele>
        <time>2021-11-17T12:26:40Z</time>
      </trkpt>
      <trkpt lat="43.47798" lon="5.45124">
        <ele>273</ele>
        <time>2021-11-17T12:27:04Z</time>
      </trkpt>
      <trkpt lat="43.47809" lon="5.45103">
        <ele>276</ele>
        <time>2021-11-17T12:27:20Z</time>
      </trkpt>
      <trkpt lat="43.47818" lon="5.45079">
        <ele>278</ele>
        <time>2021-11-17T12:27:41Z</time>
      </trkpt>
      <trkpt lat="43.47821" lon="5.45067">
        <ele>279</ele>
        <time>2021-11-17T12:27:51Z</time>
      </trkpt>
      <trkpt lat="43.4782" lon="5.45054">
        <ele>280</ele>
        <time>2021-11-17T12:28:02Z</time>
      </trkpt>
      <trkpt lat="43.47825" lon="5.45043">
        <ele>280</ele>
        <time>2021-11-17T12:28:26Z</time>
      </trkpt>
      <trkpt lat="43.47834" lon="5.45045">
        <ele>281</ele>
        <time>2021-11-17T12:30:28Z</time>
      </trkpt>
      <trkpt lat="43.4785" lon="5.4506">
        <ele>285</ele>
        <time>2021-11-17T12:30:47Z</time>
      </trkpt>
      <trkpt lat="43.47857" lon="5.45071">
        <ele>287</ele>
        <time>2021-11-17T12:30:55Z</time>
      </trkpt>
      <trkpt lat="43.47872" lon="5.45087">
        <ele>290</ele>
        <time>2021-11-17T12:31:17Z</time>
      </trkpt>
      <trkpt lat="43.47886" lon="5.45103">
        <ele>293</ele>
        <time>2021-11-17T12:31:42Z</time>
      </trkpt>
      <trkpt lat="43.47902" lon="5.45117">
        <ele>295</ele>
        <time>2021-11-17T12:32:03Z</time>
      </trkpt>
      <trkpt lat="43.47916" lon="5.45135">
        <ele>296</ele>
        <time>2021-11-17T12:32:30Z</time>
      </trkpt>
      <trkpt lat="43.4794" lon="5.45157">
        <ele>299</ele>
        <time>2021-11-17T12:33:01Z</time>
      </trkpt>
      <trkpt lat="43.47956" lon="5.45171">
        <ele>301</ele>
        <time>2021-11-17T12:33:17Z</time>
      </trkpt>
      <trkpt lat="43.47964" lon="5.45178">
        <ele>302</ele>
        <time>2021-11-17T12:33:24Z</time>
      </trkpt>
      <trkpt lat="43.47969" lon="5.45188">
        <ele>303</ele>
        <time>2021-11-17T12:33:34Z</time>
      </trkpt>
      <trkpt lat="43.47992" lon="5.45207">
        <ele>303</ele>
        <time>2021-11-17T12:33:58Z</time>
      </trkpt>
      <trkpt lat="43.47999" lon="5.45216">
        <ele>303</ele>
        <time>2021-11-17T12:34:03Z</time>
      </trkpt>
      <trkpt lat="43.48022" lon="5.45238">
        <ele>305</ele>
        <time>2021-11-17T12:34:31Z</time>
      </trkpt>
      <trkpt lat="43.4803" lon="5.45246">
        <ele>306</ele>
        <time>2021-11-17T12:34:42Z</time>
      </trkpt>
      <trkpt lat="43.48039" lon="5.45252">
        <ele>306</ele>
        <time>2021-11-17T12:34:49Z</time>
      </trkpt>
      <trkpt lat="43.48055" lon="5.45265">
        <ele>306</ele>
        <time>2021-11-17T12:35:09Z</time>
      </trkpt>
      <trkpt lat="43.48074" lon="5.45272">
        <ele>306</ele>
        <time>2021-11-17T12:35:23Z</time>
      </trkpt>
      <trkpt lat="43.48082" lon="5.45278">
        <ele>306</ele>
        <time>2021-11-17T12:35:32Z</time>
      </trkpt>
      <trkpt lat="43.48092" lon="5.45279">
        <ele>306</ele>
        <time>2021-11-17T12:35:42Z</time>
      </trkpt>
      <trkpt lat="43.48109" lon="5.45289">
        <ele>306</ele>
        <time>2021-11-17T12:36:00Z</time>
      </trkpt>
      <trkpt lat="43.48124" lon="5.45303">
        <ele>307</ele>
        <time>2021-11-17T12:36:16Z</time>
      </trkpt>
      <trkpt lat="43.48132" lon="5.45311">
        <ele>308</ele>
        <time>2021-11-17T12:36:26Z</time>
      </trkpt>
      <trkpt lat="43.4814" lon="5.45303">
        <ele>308</ele>
        <time>2021-11-17T12:37:34Z</time>
      </trkpt>
      <trkpt lat="43.48157" lon="5.45294">
        <ele>309</ele>
        <time>2021-11-17T12:37:52Z</time>
      </trkpt>
      <trkpt lat="43.4817" lon="5.45276">
        <ele>309</ele>
        <time>2021-11-17T12:38:08Z</time>
      </trkpt>
      <trkpt lat="43.48185" lon="5.4526">
        <ele>310</ele>
        <time>2021-11-17T12:38:30Z</time>
      </trkpt>
      <trkpt lat="43.48202" lon="5.45243">
        <ele>310</ele>
        <time>2021-11-17T12:38:48Z</time>
      </trkpt>
      <trkpt lat="43.48215" lon="5.45225">
        <ele>310</ele>
        <time>2021-11-17T12:39:05Z</time>
      </trkpt>
      <trkpt lat="43.48223" lon="5.452">
        <ele>311</ele>
        <time>2021-11-17T12:39:24Z</time>
      </trkpt>
      <trkpt lat="43.48225" lon="5.45174">
        <ele>311</ele>
        <time>2021-11-17T12:39:44Z</time>
      </trkpt>
      <trkpt lat="43.48229" lon="5.4515">
        <ele>311</ele>
        <time>2021-11-17T12:40:04Z</time>
      </trkpt>
      <trkpt lat="43.48229" lon="5.45137">
        <ele>311</ele>
        <time>2021-11-17T12:40:11Z</time>
      </trkpt>
      <trkpt lat="43.48237" lon="5.45113">
        <ele>311</ele>
        <time>2021-11-17T12:40:29Z</time>
      </trkpt>
      <trkpt lat="43.48239" lon="5.45099">
        <ele>310</ele>
        <time>2021-11-17T12:40:38Z</time>
      </trkpt>
      <trkpt lat="43.48238" lon="5.45087">
        <ele>310</ele>
        <time>2021-11-17T12:40:44Z</time>
      </trkpt>
      <trkpt lat="43.48243" lon="5.45062">
        <ele>310</ele>
        <time>2021-11-17T12:41:02Z</time>
      </trkpt>
      <trkpt lat="43.48249" lon="5.4505">
        <ele>310</ele>
        <time>2021-11-17T12:41:13Z</time>
      </trkpt>
      <trkpt lat="43.48253" lon="5.45025">
        <ele>309</ele>
        <time>2021-11-17T12:41:34Z</time>
      </trkpt>
      <trkpt lat="43.48257" lon="5.44987">
        <ele>308</ele>
        <time>2021-11-17T12:42:00Z</time>
      </trkpt>
      <trkpt lat="43.48259" lon="5.44962">
        <ele>307</ele>
        <time>2021-11-17T12:42:19Z</time>
      </trkpt>
      <trkpt lat="43.4826" lon="5.44949">
        <ele>307</ele>
        <time>2021-11-17T12:42:28Z</time>
      </trkpt>
      <trkpt lat="43.48258" lon="5.44922">
        <ele>306</ele>
        <time>2021-11-17T12:42:43Z</time>
      </trkpt>
      <trkpt lat="43.48257" lon="5.44895">
        <ele>306</ele>
        <time>2021-11-17T12:43:01Z</time>
      </trkpt>
      <trkpt lat="43.48259" lon="5.44882">
        <ele>305</ele>
        <time>2021-11-17T12:43:10Z</time>
      </trkpt>
      <trkpt lat="43.48255" lon="5.4487">
        <ele>304</ele>
        <time>2021-11-17T12:43:19Z</time>
      </trkpt>
      <trkpt lat="43.48252" lon="5.44857">
        <ele>303</ele>
        <time>2021-11-17T12:43:26Z</time>
      </trkpt>
      <trkpt lat="43.48256" lon="5.44844">
        <ele>303</ele>
        <time>2021-11-17T12:44:56Z</time>
      </trkpt>
      <trkpt lat="43.48253" lon="5.44818">
        <ele>303</ele>
        <time>2021-11-17T12:45:14Z</time>
      </trkpt>
      <trkpt lat="43.48252" lon="5.44805">
        <ele>303</ele>
        <time>2021-11-17T12:45:23Z</time>
      </trkpt>
      <trkpt lat="43.48249" lon="5.4478">
        <ele>301</ele>
        <time>2021-11-17T12:45:57Z</time>
      </trkpt>
      <trkpt lat="43.48252" lon="5.44753">
        <ele>301</ele>
        <time>2021-11-17T12:46:18Z</time>
      </trkpt>
      <trkpt lat="43.48251" lon="5.44727">
        <ele>301</ele>
        <time>2021-11-17T12:46:36Z</time>
      </trkpt>
      <trkpt lat="43.48256" lon="5.44702">
        <ele>299</ele>
        <time>2021-11-17T12:46:58Z</time>
      </trkpt>
      <trkpt lat="43.48267" lon="5.44681">
        <ele>299</ele>
        <time>2021-11-17T12:47:13Z</time>
      </trkpt>
      <trkpt lat="43.48276" lon="5.44659">
        <ele>299</ele>
        <time>2021-11-17T12:47:37Z</time>
      </trkpt>
      <trkpt lat="43.48288" lon="5.44623">
        <ele>299</ele>
        <time>2021-11-17T12:48:03Z</time>
      </trkpt>
      <trkpt lat="43.48297" lon="5.44601">
        <ele>299</ele>
        <time>2021-11-17T12:48:21Z</time>
      </trkpt>
      <trkpt lat="43.48308" lon="5.44579">
        <ele>299</ele>
        <time>2021-11-17T12:48:35Z</time>
      </trkpt>
      <trkpt lat="43.48316" lon="5.44555">
        <ele>299</ele>
        <time>2021-11-17T12:48:52Z</time>
      </trkpt>
      <trkpt lat="43.48318" lon="5.44542">
        <ele>299</ele>
        <time>2021-11-17T12:49:00Z</time>
      </trkpt>
      <trkpt lat="43.48325" lon="5.44534">
        <ele>299</ele>
        <time>2021-11-17T12:49:15Z</time>
      </trkpt>
      <trkpt lat="43.48343" lon="5.44527">
        <ele>299</ele>
        <time>2021-11-17T12:49:33Z</time>
      </trkpt>
      <trkpt lat="43.48363" lon="5.44528">
        <ele>301</ele>
        <time>2021-11-17T12:49:50Z</time>
      </trkpt>
      <trkpt lat="43.48381" lon="5.44524">
        <ele>301</ele>
        <time>2021-11-17T12:50:13Z</time>
      </trkpt>
      <trkpt lat="43.4839" lon="5.44529">
        <ele>301</ele>
        <time>2021-11-17T12:50:19Z</time>
      </trkpt>
      <trkpt lat="43.48407" lon="5.4454">
        <ele>301</ele>
        <time>2021-11-17T12:50:39Z</time>
      </trkpt>
      <trkpt lat="43.48416" lon="5.44544">
        <ele>300</ele>
        <time>2021-11-17T12:50:48Z</time>
      </trkpt>
      <trkpt lat="43.48435" lon="5.44546">
        <ele>299</ele>
        <time>2021-11-17T12:51:04Z</time>
      </trkpt>
      <trkpt lat="43.48444" lon="5.44548">
        <ele>299</ele>
        <time>2021-11-17T12:51:28Z</time>
      </trkpt>
      <trkpt lat="43.48453" lon="5.44549">
        <ele>299</ele>
        <time>2021-11-17T12:51:38Z</time>
      </trkpt>
      <trkpt lat="43.4846" lon="5.44557">
        <ele>299</ele>
        <time>2021-11-17T12:51:50Z</time>
      </trkpt>
      <trkpt lat="43.48456" lon="5.44568">
        <ele>298</ele>
        <time>2021-11-17T12:52:23Z</time>
      </trkpt>
      <trkpt lat="43.4845" lon="5.44579">
        <ele>297</ele>
        <time>2021-11-17T12:52:32Z</time>
      </trkpt>
      <trkpt lat="43.4844" lon="5.44601">
        <ele>295</ele>
        <time>2021-11-17T12:52:55Z</time>
      </trkpt>
      <trkpt lat="43.48425" lon="5.44616">
        <ele>293</ele>
        <time>2021-11-17T12:53:13Z</time>
      </trkpt>
      <trkpt lat="43.48418" lon="5.44626">
        <ele>293</ele>
        <time>2021-11-17T12:53:27Z</time>
      </trkpt>
      <trkpt lat="43.48418" lon="5.44639">
        <ele>292</ele>
        <time>2021-11-17T12:53:48Z</time>
      </trkpt>
      <trkpt lat="43.48412" lon="5.4465">
        <ele>291</ele>
        <time>2021-11-17T12:54:02Z</time>
      </trkpt>
      <trkpt lat="43.48421" lon="5.44654">
        <ele>290</ele>
        <time>2021-11-17T12:54:36Z</time>
      </trkpt>
      <trkpt lat="43.48441" lon="5.44657">
        <ele>288</ele>
        <time>2021-11-17T12:54:55Z</time>
      </trkpt>
      <trkpt lat="43.48451" lon="5.44658">
        <ele>287</ele>
        <time>2021-11-17T12:55:10Z</time>
      </trkpt>
      <trkpt lat="43.4846" lon="5.4466">
        <ele>285</ele>
        <time>2021-11-17T12:55:18Z</time>
      </trkpt>
      <trkpt lat="43.48468" lon="5.44668">
        <ele>283</ele>
        <time>2021-11-17T12:55:35Z</time>
      </trkpt>
      <trkpt lat="43.48475" lon="5.44677">
        <ele>282</ele>
        <time>2021-11-17T12:55:44Z</time>
      </trkpt>
      <trkpt lat="43.48474" lon="5.44676">
        <ele>282</ele>
        <time>2021-11-17T12:56:31Z</time>
      </trkpt>
      <trkpt lat="43.48474" lon="5.44678">
        <ele>282</ele>
        <time>2021-11-17T12:56:41Z</time>
      </trkpt>
      <trkpt lat="43.48474" lon="5.4468">
        <ele>282</ele>
        <time>2021-11-17T12:56:47Z</time>
      </trkpt>
      <trkpt lat="43.48477" lon="5.44681">
        <ele>282</ele>
        <time>2021-11-17T12:56:55Z</time>
      </trkpt>
      <trkpt lat="43.48477" lon="5.44682">
        <ele>282</ele>
        <time>2021-11-17T12:57:05Z</time>
      </trkpt>
      <trkpt lat="43.4847" lon="5.44688">
        <ele>282</ele>
        <time>2021-11-17T12:57:41Z</time>
      </trkpt>
      <trkpt lat="43.48478" lon="5.44679">
        <ele>282</ele>
        <time>2021-11-17T12:58:08Z</time>
      </trkpt>
      <trkpt lat="43.48487" lon="5.44683">
        <ele>281</ele>
        <time>2021-11-17T12:58:20Z</time>
      </trkpt>
      <trkpt lat="43.48503" lon="5.44695">
        <ele>280</ele>
        <time>2021-11-17T12:58:37Z</time>
      </trkpt>
      <trkpt lat="43.48513" lon="5.44701">
        <ele>279</ele>
        <time>2021-11-17T12:58:49Z</time>
      </trkpt>
      <trkpt lat="43.48521" lon="5.44725">
        <ele>276</ele>
        <time>2021-11-17T12:59:10Z</time>
      </trkpt>
      <trkpt lat="43.48528" lon="5.44733">
        <ele>275</ele>
        <time>2021-11-17T12:59:32Z</time>
      </trkpt>
      <trkpt lat="43.48543" lon="5.44746">
        <ele>274</ele>
        <time>2021-11-17T12:59:54Z</time>
      </trkpt>
      <trkpt lat="43.48551" lon="5.44754">
        <ele>273</ele>
        <time>2021-11-17T13:00:01Z</time>
      </trkpt>
      <trkpt lat="43.48555" lon="5.44765">
        <ele>272</ele>
        <time>2021-11-17T13:00:08Z</time>
      </trkpt>
      <trkpt lat="43.48556" lon="5.44778">
        <ele>272</ele>
        <time>2021-11-17T13:00:24Z</time>
      </trkpt>
      <trkpt lat="43.48566" lon="5.44778">
        <ele>272</ele>
        <time>2021-11-17T13:00:40Z</time>
      </trkpt>
      <trkpt lat="43.48575" lon="5.44774">
        <ele>271</ele>
        <time>2021-11-17T13:00:57Z</time>
      </trkpt>
      <trkpt lat="43.48583" lon="5.44765">
        <ele>270</ele>
        <time>2021-11-17T13:01:10Z</time>
      </trkpt>
      <trkpt lat="43.48591" lon="5.44761">
        <ele>269</ele>
        <time>2021-11-17T13:01:28Z</time>
      </trkpt>
      <trkpt lat="43.48601" lon="5.44764">
        <ele>269</ele>
        <time>2021-11-17T13:01:40Z</time>
      </trkpt>
      <trkpt lat="43.4862" lon="5.44763">
        <ele>267</ele>
        <time>2021-11-17T13:01:55Z</time>
      </trkpt>
      <trkpt lat="43.48629" lon="5.44767">
        <ele>265</ele>
        <time>2021-11-17T13:02:02Z</time>
      </trkpt>
      <trkpt lat="43.48638" lon="5.44768">
        <ele>264</ele>
        <time>2021-11-17T13:02:17Z</time>
      </trkpt>
      <trkpt lat="43.4866" lon="5.44796">
        <ele>262</ele>
        <time>2021-11-17T13:02:51Z</time>
      </trkpt>
      <trkpt lat="43.48667" lon="5.44804">
        <ele>260</ele>
        <time>2021-11-17T13:03:13Z</time>
      </trkpt>
      <trkpt lat="43.48685" lon="5.44812">
        <ele>259</ele>
        <time>2021-11-17T13:03:31Z</time>
      </trkpt>
      <trkpt lat="43.48694" lon="5.44816">
        <ele>258</ele>
        <time>2021-11-17T13:03:43Z</time>
      </trkpt>
      <trkpt lat="43.4871" lon="5.44829">
        <ele>256</ele>
        <time>2021-11-17T13:03:55Z</time>
      </trkpt>
      <trkpt lat="43.48719" lon="5.44833">
        <ele>254</ele>
        <time>2021-11-17T13:04:01Z</time>
      </trkpt>
      <trkpt lat="43.48728" lon="5.44837">
        <ele>253</ele>
        <time>2021-11-17T13:04:10Z</time>
      </trkpt>
      <trkpt lat="43.48737" lon="5.44843">
        <ele>253</ele>
        <time>2021-11-17T13:04:27Z</time>
      </trkpt>
      <trkpt lat="43.48755" lon="5.44848">
        <ele>252</ele>
        <time>2021-11-17T13:04:49Z</time>
      </trkpt>
      <trkpt lat="43.48764" lon="5.44853">
        <ele>251</ele>
        <time>2021-11-17T13:04:58Z</time>
      </trkpt>
      <trkpt lat="43.48773" lon="5.44858">
        <ele>251</ele>
        <time>2021-11-17T13:05:40Z</time>
      </trkpt>
      <trkpt lat="43.48782" lon="5.44854">
        <ele>251</ele>
        <time>2021-11-17T13:06:03Z</time>
      </trkpt>
      <trkpt lat="43.48789" lon="5.44847">
        <ele>250</ele>
        <time>2021-11-17T13:06:15Z</time>
      </trkpt>
      <trkpt lat="43.48796" lon="5.44838">
        <ele>249</ele>
        <time>2021-11-17T13:06:23Z</time>
      </trkpt>
      <trkpt lat="43.48808" lon="5.44818">
        <ele>250</ele>
        <time>2021-11-17T13:06:46Z</time>
      </trkpt>
      <trkpt lat="43.48814" lon="5.44807">
        <ele>250</ele>
        <time>2021-11-17T13:06:55Z</time>
      </trkpt>
      <trkpt lat="43.48816" lon="5.44793">
        <ele>249</ele>
        <time>2021-11-17T13:07:03Z</time>
      </trkpt>
      <trkpt lat="43.48819" lon="5.44766">
        <ele>249</ele>
        <time>2021-11-17T13:07:27Z</time>
      </trkpt>
      <trkpt lat="43.48823" lon="5.44754">
        <ele>249</ele>
        <time>2021-11-17T13:07:41Z</time>
      </trkpt>
      <trkpt lat="43.48826" lon="5.44741">
        <ele>249</ele>
        <time>2021-11-17T13:07:51Z</time>
      </trkpt>
      <trkpt lat="43.48838" lon="5.44719">
        <ele>251</ele>
        <time>2021-11-17T13:08:16Z</time>
      </trkpt>
      <trkpt lat="43.48844" lon="5.4471">
        <ele>252</ele>
        <time>2021-11-17T13:08:26Z</time>
      </trkpt>
      <trkpt lat="43.48854" lon="5.44706">
        <ele>251</ele>
        <time>2021-11-17T13:08:38Z</time>
      </trkpt>
      <trkpt lat="43.48863" lon="5.44705">
        <ele>249</ele>
        <time>2021-11-17T13:08:55Z</time>
      </trkpt>
      <trkpt lat="43.48873" lon="5.44701">
        <ele>249</ele>
        <time>2021-11-17T13:09:02Z</time>
      </trkpt>
      <trkpt lat="43.48893" lon="5.44704">
        <ele>247</ele>
        <time>2021-11-17T13:09:28Z</time>
      </trkpt>
      <trkpt lat="43.48912" lon="5.44709">
        <ele>245</ele>
        <time>2021-11-17T13:09:41Z</time>
      </trkpt>
      <trkpt lat="43.48922" lon="5.44709">
        <ele>245</ele>
        <time>2021-11-17T13:09:52Z</time>
      </trkpt>
      <trkpt lat="43.4894" lon="5.44717">
        <ele>242</ele>
        <time>2021-11-17T13:10:10Z</time>
      </trkpt>
      <trkpt lat="43.4895" lon="5.44717">
        <ele>241</ele>
        <time>2021-11-17T13:10:22Z</time>
      </trkpt>
      <trkpt lat="43.48967" lon="5.44721">
        <ele>240</ele>
        <time>2021-11-17T13:10:39Z</time>
      </trkpt>
      <trkpt lat="43.48986" lon="5.44726">
        <ele>238</ele>
        <time>2021-11-17T13:11:01Z</time>
      </trkpt>
      <trkpt lat="43.48995" lon="5.44723">
        <ele>237</ele>
        <time>2021-11-17T13:11:09Z</time>
      </trkpt>
      <trkpt lat="43.49006" lon="5.44715">
        <ele>237</ele>
        <time>2021-11-17T13:11:15Z</time>
      </trkpt>
      <trkpt lat="43.49023" lon="5.44702">
        <ele>237</ele>
        <time>2021-11-17T13:11:31Z</time>
      </trkpt>
      <trkpt lat="43.4904" lon="5.44688">
        <ele>236</ele>
        <time>2021-11-17T13:11:47Z</time>
      </trkpt>
      <trkpt lat="43.49049" lon="5.44686">
        <ele>235</ele>
        <time>2021-11-17T13:11:56Z</time>
      </trkpt>
      <trkpt lat="43.49058" lon="5.44688">
        <ele>233</ele>
        <time>2021-11-17T13:12:19Z</time>
      </trkpt>
      <trkpt lat="43.49066" lon="5.4468">
        <ele>233</ele>
        <time>2021-11-17T13:12:33Z</time>
      </trkpt>
      <trkpt lat="43.49074" lon="5.44676">
        <ele>232</ele>
        <time>2021-11-17T13:13:05Z</time>
      </trkpt>
      <trkpt lat="43.49087" lon="5.44656">
        <ele>231</ele>
        <time>2021-11-17T13:13:25Z</time>
      </trkpt>
      <trkpt lat="43.49091" lon="5.44644">
        <ele>231</ele>
        <time>2021-11-17T13:13:33Z</time>
      </trkpt>
      <trkpt lat="43.49097" lon="5.44634">
        <ele>231</ele>
        <time>2021-11-17T13:13:46Z</time>
      </trkpt>
      <trkpt lat="43.49106" lon="5.4463">
        <ele>230</ele>
        <time>2021-11-17T13:14:01Z</time>
      </trkpt>
      <trkpt lat="43.49101" lon="5.44642">
        <ele>230</ele>
        <time>2021-11-17T13:14:29Z</time>
      </trkpt>
      <trkpt lat="43.49092" lon="5.44643">
        <ele>231</ele>
        <time>2021-11-17T13:15:25Z</time>
      </trkpt>
      <trkpt lat="43.49101" lon="5.44641">
        <ele>231</ele>
        <time>2021-11-17T13:16:14Z</time>
      </trkpt>
      <trkpt lat="43.49108" lon="5.44617">
        <ele>230</ele>
        <time>2021-11-17T13:16:39Z</time>
      </trkpt>
      <trkpt lat="43.49124" lon="5.44584">
        <ele>230</ele>
        <time>2021-11-17T13:17:11Z</time>
      </trkpt>
      <trkpt lat="43.4913" lon="5.44573">
        <ele>229</ele>
        <time>2021-11-17T13:17:23Z</time>
      </trkpt>
      <trkpt lat="43.49143" lon="5.44553">
        <ele>227</ele>
        <time>2021-11-17T13:17:41Z</time>
      </trkpt>
      <trkpt lat="43.49151" lon="5.4453">
        <ele>227</ele>
        <time>2021-11-17T13:18:01Z</time>
      </trkpt>
      <trkpt lat="43.49156" lon="5.44519">
        <ele>227</ele>
        <time>2021-11-17T13:18:13Z</time>
      </trkpt>
      <trkpt lat="43.49155" lon="5.44505">
        <ele>227</ele>
        <time>2021-11-17T13:18:35Z</time>
      </trkpt>
      <trkpt lat="43.49159" lon="5.4448">
        <ele>227</ele>
        <time>2021-11-17T13:18:59Z</time>
      </trkpt>
      <trkpt lat="43.49161" lon="5.44468">
        <ele>226</ele>
        <time>2021-11-17T13:19:14Z</time>
      </trkpt>
      <trkpt lat="43.49156" lon="5.44456">
        <ele>227</ele>
        <time>2021-11-17T13:19:40Z</time>
      </trkpt>
      <trkpt lat="43.49152" lon="5.4443">
        <ele>228</ele>
        <time>2021-11-17T13:20:01Z</time>
      </trkpt>
      <trkpt lat="43.49147" lon="5.44406">
        <ele>228</ele>
        <time>2021-11-17T13:20:18Z</time>
      </trkpt>
      <trkpt lat="43.49143" lon="5.44379">
        <ele>228</ele>
        <time>2021-11-17T13:20:35Z</time>
      </trkpt>
      <trkpt lat="43.49138" lon="5.44354">
        <ele>227</ele>
        <time>2021-11-17T13:20:51Z</time>
      </trkpt>
      <trkpt lat="43.49133" lon="5.44315">
        <ele>223</ele>
        <time>2021-11-17T13:21:22Z</time>
      </trkpt>
      <trkpt lat="43.49132" lon="5.4429">
        <ele>222</ele>
        <time>2021-11-17T13:21:43Z</time>
      </trkpt>
      <trkpt lat="43.49131" lon="5.44264">
        <ele>223</ele>
        <time>2021-11-17T13:21:58Z</time>
      </trkpt>
      <trkpt lat="43.49129" lon="5.44251">
        <ele>224</ele>
        <time>2021-11-17T13:22:14Z</time>
      </trkpt>
      <trkpt lat="43.49129" lon="5.44224">
        <ele>226</ele>
        <time>2021-11-17T13:22:30Z</time>
      </trkpt>
      <trkpt lat="43.49135" lon="5.442">
        <ele>226</ele>
        <time>2021-11-17T13:22:49Z</time>
      </trkpt>
      <trkpt lat="43.49143" lon="5.44177">
        <ele>225</ele>
        <time>2021-11-17T13:23:09Z</time>
      </trkpt>
      <trkpt lat="43.49149" lon="5.44165">
        <ele>223</ele>
        <time>2021-11-17T13:23:20Z</time>
      </trkpt>
      <trkpt lat="43.49151" lon="5.44152">
        <ele>222</ele>
        <time>2021-11-17T13:23:28Z</time>
      </trkpt>
      <trkpt lat="43.4916" lon="5.44149">
        <ele>219</ele>
        <time>2021-11-17T13:23:39Z</time>
      </trkpt>
      <trkpt lat="43.49177" lon="5.44164">
        <ele>214</ele>
        <time>2021-11-17T13:23:55Z</time>
      </trkpt>
      <trkpt lat="43.49194" lon="5.44177">
        <ele>210</ele>
        <time>2021-11-17T13:24:15Z</time>
      </trkpt>
      <trkpt lat="43.49213" lon="5.4417">
        <ele>209</ele>
        <time>2021-11-17T13:24:30Z</time>
      </trkpt>
      <trkpt lat="43.49232" lon="5.4416">
        <ele>207</ele>
        <time>2021-11-17T13:24:41Z</time>
      </trkpt>
      <trkpt lat="43.49242" lon="5.44156">
        <ele>207</ele>
        <time>2021-11-17T13:24:48Z</time>
      </trkpt>
      <trkpt lat="43.4926" lon="5.44159">
        <ele>206</ele>
        <time>2021-11-17T13:25:08Z</time>
      </trkpt>
      <trkpt lat="43.49279" lon="5.44161">
        <ele>205</ele>
        <time>2021-11-17T13:25:26Z</time>
      </trkpt>
      <trkpt lat="43.49288" lon="5.4416">
        <ele>205</ele>
        <time>2021-11-17T13:25:37Z</time>
      </trkpt>
      <trkpt lat="43.49297" lon="5.44165">
        <ele>205</ele>
        <time>2021-11-17T13:25:55Z</time>
      </trkpt>
      <trkpt lat="43.49317" lon="5.44171">
        <ele>205</ele>
        <time>2021-11-17T13:26:13Z</time>
      </trkpt>
      <trkpt lat="43.49335" lon="5.44174">
        <ele>205</ele>
        <time>2021-11-17T13:26:31Z</time>
      </trkpt>
      <trkpt lat="43.49344" lon="5.44176">
        <ele>204</ele>
        <time>2021-11-17T13:26:38Z</time>
      </trkpt>
      <trkpt lat="43.49362" lon="5.44183">
        <ele>204</ele>
        <time>2021-11-17T13:27:01Z</time>
      </trkpt>
      <trkpt lat="43.49371" lon="5.44178">
        <ele>202</ele>
        <time>2021-11-17T13:27:11Z</time>
      </trkpt>
      <trkpt lat="43.4939" lon="5.44174">
        <ele>201</ele>
        <time>2021-11-17T13:27:28Z</time>
      </trkpt>
      <trkpt lat="43.49409" lon="5.4417">
        <ele>201</ele>
        <time>2021-11-17T13:27:48Z</time>
      </trkpt>
      <trkpt lat="43.49428" lon="5.44168">
        <ele>201</ele>
        <time>2021-11-17T13:28:01Z</time>
      </trkpt>
      <trkpt lat="43.49446" lon="5.44175">
        <ele>202</ele>
        <time>2021-11-17T13:28:14Z</time>
      </trkpt>
      <trkpt lat="43.49456" lon="5.44176">
        <ele>203</ele>
        <time>2021-11-17T13:28:20Z</time>
      </trkpt>
      <trkpt lat="43.49475" lon="5.44182">
        <ele>204</ele>
        <time>2021-11-17T13:28:37Z</time>
      </trkpt>
      <trkpt lat="43.49494" lon="5.44188">
        <ele>205</ele>
        <time>2021-11-17T13:28:53Z</time>
      </trkpt>
      <trkpt lat="43.49502" lon="5.44194">
        <ele>205</ele>
        <time>2021-11-17T13:29:01Z</time>
      </trkpt>
      <trkpt lat="43.49518" lon="5.44207">
        <ele>205</ele>
        <time>2021-11-17T13:29:33Z</time>
      </trkpt>
      <trkpt lat="43.49537" lon="5.44203">
        <ele>204</ele>
        <time>2021-11-17T13:29:50Z</time>
      </trkpt>
      <trkpt lat="43.49547" lon="5.44197">
        <ele>203</ele>
        <time>2021-11-17T13:29:58Z</time>
      </trkpt>
      <trkpt lat="43.49567" lon="5.44185">
        <ele>202</ele>
        <time>2021-11-17T13:30:08Z</time>
      </trkpt>
      <trkpt lat="43.49575" lon="5.44176">
        <ele>202</ele>
        <time>2021-11-17T13:30:14Z</time>
      </trkpt>
      <trkpt lat="43.49584" lon="5.44172">
        <ele>201</ele>
        <time>2021-11-17T13:30:26Z</time>
      </trkpt>
      <trkpt lat="43.49595" lon="5.44149">
        <ele>201</ele>
        <time>2021-11-17T13:30:42Z</time>
      </trkpt>
      <trkpt lat="43.49607" lon="5.44129">
        <ele>200</ele>
        <time>2021-11-17T13:30:55Z</time>
      </trkpt>
      <trkpt lat="43.49627" lon="5.44101">
        <ele>198</ele>
        <time>2021-11-17T13:31:13Z</time>
      </trkpt>
      <trkpt lat="43.49644" lon="5.44086">
        <ele>198</ele>
        <time>2021-11-17T13:31:27Z</time>
      </trkpt>
      <trkpt lat="43.4965" lon="5.44083">
        <ele>198</ele>
        <time>2021-11-17T13:31:32Z</time>
      </trkpt>
      <trkpt lat="43.49657" lon="5.44075">
        <ele>197</ele>
        <time>2021-11-17T13:31:41Z</time>
      </trkpt>
      <trkpt lat="43.49676" lon="5.44073">
        <ele>197</ele>
        <time>2021-11-17T13:32:00Z</time>
      </trkpt>
      <trkpt lat="43.49696" lon="5.44072">
        <ele>196</ele>
        <time>2021-11-17T13:32:20Z</time>
      </trkpt>
      <trkpt lat="43.49705" lon="5.44069">
        <ele>195</ele>
        <time>2021-11-17T13:32:28Z</time>
      </trkpt>
      <trkpt lat="43.49716" lon="5.44072">
        <ele>195</ele>
        <time>2021-11-17T13:32:37Z</time>
      </trkpt>
      <trkpt lat="43.49724" lon="5.44077">
        <ele>195</ele>
        <time>2021-11-17T13:33:06Z</time>
      </trkpt>
      <trkpt lat="43.49732" lon="5.44069">
        <ele>194</ele>
        <time>2021-11-17T13:33:22Z</time>
      </trkpt>
      <trkpt lat="43.49741" lon="5.44076">
        <ele>195</ele>
        <time>2021-11-17T13:33:40Z</time>
      </trkpt>
      <trkpt lat="43.49754" lon="5.44095">
        <ele>197</ele>
        <time>2021-11-17T13:33:55Z</time>
      </trkpt>
      <trkpt lat="43.49771" lon="5.44103">
        <ele>196</ele>
        <time>2021-11-17T13:34:11Z</time>
      </trkpt>
      <trkpt lat="43.49799" lon="5.44119">
        <ele>196</ele>
        <time>2021-11-17T13:34:31Z</time>
      </trkpt>
      <trkpt lat="43.49807" lon="5.44126">
        <ele>196</ele>
        <time>2021-11-17T13:34:39Z</time>
      </trkpt>
      <trkpt lat="43.49809" lon="5.44138">
        <ele>196</ele>
        <time>2021-11-17T13:34:59Z</time>
      </trkpt>
      <trkpt lat="43.49816" lon="5.44146">
        <ele>196</ele>
        <time>2021-11-17T13:35:07Z</time>
      </trkpt>
      <trkpt lat="43.49828" lon="5.44165">
        <ele>196</ele>
        <time>2021-11-17T13:35:30Z</time>
      </trkpt>
      <trkpt lat="43.49841" lon="5.44185">
        <ele>197</ele>
        <time>2021-11-17T13:35:49Z</time>
      </trkpt>
      <trkpt lat="43.49855" lon="5.44202">
        <ele>198</ele>
        <time>2021-11-17T13:36:05Z</time>
      </trkpt>
      <trkpt lat="43.49875" lon="5.44229">
        <ele>198</ele>
        <time>2021-11-17T13:36:34Z</time>
      </trkpt>
      <trkpt lat="43.49887" lon="5.44252">
        <ele>198</ele>
        <time>2021-11-17T13:36:51Z</time>
      </trkpt>
      <trkpt lat="43.499" lon="5.44273">
        <ele>197</ele>
        <time>2021-11-17T13:37:10Z</time>
      </trkpt>
      <trkpt lat="43.49909" lon="5.44295">
        <ele>197</ele>
        <time>2021-11-17T13:37:33Z</time>
      </trkpt>
      <trkpt lat="43.49925" lon="5.44308">
        <ele>196</ele>
        <time>2021-11-17T13:37:50Z</time>
      </trkpt>
      <trkpt lat="43.49943" lon="5.44311">
        <ele>196</ele>
        <time>2021-11-17T13:38:06Z</time>
      </trkpt>
      <trkpt lat="43.49962" lon="5.44311">
        <ele>196</ele>
        <time>2021-11-17T13:38:19Z</time>
      </trkpt>
      <trkpt lat="43.49982" lon="5.44312">
        <ele>196</ele>
        <time>2021-11-17T13:38:32Z</time>
      </trkpt>
      <trkpt lat="43.5001" lon="5.44308">
        <ele>195</ele>
        <time>2021-11-17T13:39:03Z</time>
      </trkpt>
      <trkpt lat="43.5003" lon="5.4431">
        <ele>193</ele>
        <time>2021-11-17T13:39:20Z</time>
      </trkpt>
      <trkpt lat="43.50049" lon="5.44313">
        <ele>192</ele>
        <time>2021-11-17T13:39:39Z</time>
      </trkpt>
      <trkpt lat="43.50067" lon="5.44321">
        <ele>190</ele>
        <time>2021-11-17T13:39:54Z</time>
      </trkpt>
      <trkpt lat="43.50095" lon="5.44329">
        <ele>186</ele>
        <time>2021-11-17T13:40:23Z</time>
      </trkpt>
      <trkpt lat="43.50112" lon="5.44342">
        <ele>183</ele>
        <time>2021-11-17T13:40:44Z</time>
      </trkpt>
      <trkpt lat="43.50131" lon="5.44348">
        <ele>181</ele>
        <time>2021-11-17T13:41:05Z</time>
      </trkpt>
      <trkpt lat="43.50146" lon="5.44362">
        <ele>179</ele>
        <time>2021-11-17T13:41:20Z</time>
      </trkpt>
      <trkpt lat="43.50163" lon="5.44373">
        <ele>179</ele>
        <time>2021-11-17T13:41:36Z</time>
      </trkpt>
      <trkpt lat="43.50178" lon="5.44387">
        <ele>175</ele>
        <time>2021-11-17T13:42:00Z</time>
      </trkpt>
      <trkpt lat="43.50187" lon="5.44393">
        <ele>174</ele>
        <time>2021-11-17T13:42:09Z</time>
      </trkpt>
      <trkpt lat="43.50195" lon="5.444">
        <ele>173</ele>
        <time>2021-11-17T13:42:22Z</time>
      </trkpt>
      <trkpt lat="43.50213" lon="5.44413">
        <ele>171</ele>
        <time>2021-11-17T13:42:39Z</time>
      </trkpt>
      <trkpt lat="43.50229" lon="5.44425">
        <ele>170</ele>
        <time>2021-11-17T13:42:53Z</time>
      </trkpt>
      <trkpt lat="43.50245" lon="5.44441">
        <ele>169</ele>
        <time>2021-11-17T13:43:11Z</time>
      </trkpt>
      <trkpt lat="43.50259" lon="5.4446">
        <ele>168</ele>
        <time>2021-11-17T13:43:28Z</time>
      </trkpt>
      <trkpt lat="43.50273" lon="5.44479">
        <ele>167</ele>
        <time>2021-11-17T13:43:43Z</time>
      </trkpt>
      <trkpt lat="43.50288" lon="5.44496">
        <ele>166</ele>
        <time>2021-11-17T13:44:01Z</time>
      </trkpt>
      <trkpt lat="43.50299" lon="5.44518">
        <ele>165</ele>
        <time>2021-11-17T13:44:21Z</time>
      </trkpt>
      <trkpt lat="43.50306" lon="5.4453">
        <ele>163</ele>
        <time>2021-11-17T13:44:28Z</time>
      </trkpt>
      <trkpt lat="43.50311" lon="5.44539">
        <ele>164</ele>
        <time>2021-11-17T13:44:37Z</time>
      </trkpt>
      <trkpt lat="43.5033" lon="5.44532">
        <ele>164</ele>
        <time>2021-11-17T13:44:56Z</time>
      </trkpt>
      <trkpt lat="43.50338" lon="5.44526">
        <ele>163</ele>
        <time>2021-11-17T13:45:10Z</time>
      </trkpt>
      <trkpt lat="43.50348" lon="5.44532">
        <ele>164</ele>
        <time>2021-11-17T13:45:21Z</time>
      </trkpt>
      <trkpt lat="43.50366" lon="5.44529">
        <ele>163</ele>
        <time>2021-11-17T13:45:45Z</time>
      </trkpt>
      <trkpt lat="43.50376" lon="5.44528">
        <ele>163</ele>
        <time>2021-11-17T13:46:05Z</time>
      </trkpt>
      <trkpt lat="43.50392" lon="5.44545">
        <ele>163</ele>
        <time>2021-11-17T13:46:19Z</time>
      </trkpt>
      <trkpt lat="43.50402" lon="5.44568">
        <ele>164</ele>
        <time>2021-11-17T13:46:33Z</time>
      </trkpt>
      <trkpt lat="43.5041" lon="5.44592">
        <ele>166</ele>
        <time>2021-11-17T13:46:48Z</time>
      </trkpt>
      <trkpt lat="43.50414" lon="5.44605">
        <ele>167</ele>
        <time>2021-11-17T13:46:58Z</time>
      </trkpt>
      <trkpt lat="43.50426" lon="5.44624">
        <ele>167</ele>
        <time>2021-11-17T13:47:16Z</time>
      </trkpt>
      <trkpt lat="43.50438" lon="5.44645">
        <ele>167</ele>
        <time>2021-11-17T13:47:32Z</time>
      </trkpt>
      <trkpt lat="43.50458" lon="5.44671">
        <ele>167</ele>
        <time>2021-11-17T13:47:52Z</time>
      </trkpt>
      <trkpt lat="43.50476" lon="5.44683">
        <ele>166</ele>
        <time>2021-11-17T13:48:06Z</time>
      </trkpt>
      <trkpt lat="43.50494" lon="5.44687">
        <ele>164</ele>
        <time>2021-11-17T13:48:17Z</time>
      </trkpt>
      <trkpt lat="43.50503" lon="5.4469">
        <ele>163</ele>
        <time>2021-11-17T13:48:21Z</time>
      </trkpt>
      <trkpt lat="43.50521" lon="5.44698">
        <ele>161</ele>
        <time>2021-11-17T13:48:36Z</time>
      </trkpt>
      <trkpt lat="43.5053" lon="5.44704">
        <ele>160</ele>
        <time>2021-11-17T13:48:43Z</time>
      </trkpt>
      <trkpt lat="43.50537" lon="5.44712">
        <ele>160</ele>
        <time>2021-11-17T13:48:54Z</time>
      </trkpt>
      <trkpt lat="43.50559" lon="5.44737">
        <ele>159</ele>
        <time>2021-11-17T13:49:19Z</time>
      </trkpt>
      <trkpt lat="43.50567" lon="5.44745">
        <ele>160</ele>
        <time>2021-11-17T13:49:27Z</time>
      </trkpt>
      <trkpt lat="43.50585" lon="5.44754">
        <ele>159</ele>
        <time>2021-11-17T13:49:44Z</time>
      </trkpt>
      <trkpt lat="43.50604" lon="5.44759">
        <ele>157</ele>
        <time>2021-11-17T13:50:00Z</time>
      </trkpt>
      <trkpt lat="43.50623" lon="5.44763">
        <ele>156</ele>
        <time>2021-11-17T13:50:17Z</time>
      </trkpt>
      <trkpt lat="43.50632" lon="5.44759">
        <ele>155</ele>
        <time>2021-11-17T13:50:28Z</time>
      </trkpt>
      <trkpt lat="43.50663" lon="5.44728">
        <ele>153</ele>
        <time>2021-11-17T13:51:03Z</time>
      </trkpt>
      <trkpt lat="43.50679" lon="5.44713">
        <ele>152</ele>
        <time>2021-11-17T13:51:20Z</time>
      </trkpt>
      <trkpt lat="43.50694" lon="5.44697">
        <ele>151</ele>
        <time>2021-11-17T13:51:39Z</time>
      </trkpt>
      <trkpt lat="43.5071" lon="5.4468">
        <ele>150</ele>
        <time>2021-11-17T13:51:58Z</time>
      </trkpt>
      <trkpt lat="43.50729" lon="5.44677">
        <ele>149</ele>
        <time>2021-11-17T13:52:16Z</time>
      </trkpt>
      <trkpt lat="43.50748" lon="5.44684">
        <ele>148</ele>
        <time>2021-11-17T13:52:33Z</time>
      </trkpt>
      <trkpt lat="43.50767" lon="5.44688">
        <ele>147</ele>
        <time>2021-11-17T13:52:48Z</time>
      </trkpt>
      <trkpt lat="43.50775" lon="5.44695">
        <ele>146</ele>
        <time>2021-11-17T13:52:55Z</time>
      </trkpt>
      <trkpt lat="43.50794" lon="5.447">
        <ele>146</ele>
        <time>2021-11-17T13:53:13Z</time>
      </trkpt>
      <trkpt lat="43.50822" lon="5.44706">
        <ele>144</ele>
        <time>2021-11-17T13:53:36Z</time>
      </trkpt>
      <trkpt lat="43.5084" lon="5.44714">
        <ele>143</ele>
        <time>2021-11-17T13:54:03Z</time>
      </trkpt>
      <trkpt lat="43.50848" lon="5.44708">
        <ele>142</ele>
        <time>2021-11-17T13:54:12Z</time>
      </trkpt>
      <trkpt lat="43.50867" lon="5.4471">
        <ele>141</ele>
        <time>2021-11-17T13:54:32Z</time>
      </trkpt>
      <trkpt lat="43.50888" lon="5.44708">
        <ele>140</ele>
        <time>2021-11-17T13:54:46Z</time>
      </trkpt>
      <trkpt lat="43.50907" lon="5.447">
        <ele>139</ele>
        <time>2021-11-17T13:55:02Z</time>
      </trkpt>
      <trkpt lat="43.50917" lon="5.44699">
        <ele>138</ele>
        <time>2021-11-17T13:55:10Z</time>
      </trkpt>
      <trkpt lat="43.50924" lon="5.44691">
        <ele>137</ele>
        <time>2021-11-17T13:55:21Z</time>
      </trkpt>
      <trkpt lat="43.50943" lon="5.44685">
        <ele>136</ele>
        <time>2021-11-17T13:55:34Z</time>
      </trkpt>
      <trkpt lat="43.50953" lon="5.44682">
        <ele>136</ele>
        <time>2021-11-17T13:55:43Z</time>
      </trkpt>
      <trkpt lat="43.50961" lon="5.44676">
        <ele>135</ele>
        <time>2021-11-17T13:55:56Z</time>
      </trkpt>
      <trkpt lat="43.50969" lon="5.44682">
        <ele>134</ele>
        <time>2021-11-17T13:57:11Z</time>
      </trkpt>
      <trkpt lat="43.50978" lon="5.44677">
        <ele>134</ele>
        <time>2021-11-17T13:57:41Z</time>
      </trkpt>
      <trkpt lat="43.5099" lon="5.44657">
        <ele>133</ele>
        <time>2021-11-17T13:57:54Z</time>
      </trkpt>
      <trkpt lat="43.51007" lon="5.44667">
        <ele>131</ele>
        <time>2021-11-17T13:58:10Z</time>
      </trkpt>
      <trkpt lat="43.51015" lon="5.44672">
        <ele>131</ele>
        <time>2021-11-17T13:58:23Z</time>
      </trkpt>
      <trkpt lat="43.51034" lon="5.44677">
        <ele>131</ele>
        <time>2021-11-17T13:58:38Z</time>
      </trkpt>
      <trkpt lat="43.51043" lon="5.44683">
        <ele>131</ele>
        <time>2021-11-17T13:58:46Z</time>
      </trkpt>
      <trkpt lat="43.51052" lon="5.44677">
        <ele>132</ele>
        <time>2021-11-17T13:58:56Z</time>
      </trkpt>
      <trkpt lat="43.51047" lon="5.44666">
        <ele>132</ele>
        <time>2021-11-17T13:59:07Z</time>
      </trkpt>
      <trkpt lat="43.51038" lon="5.44666">
        <ele>131</ele>
        <time>2021-11-17T13:59:15Z</time>
      </trkpt>
      <trkpt lat="43.51027" lon="5.44689">
        <ele>131</ele>
        <time>2021-11-17T13:59:39Z</time>
      </trkpt>
      <trkpt lat="43.5102" lon="5.44712">
        <ele>132</ele>
        <time>2021-11-17T14:00:46Z</time>
      </trkpt>
      <trkpt lat="43.51011" lon="5.44733">
        <ele>132</ele>
        <time>2021-11-17T14:01:12Z</time>
      </trkpt>
      <trkpt lat="43.51009" lon="5.44747">
        <ele>131</ele>
        <time>2021-11-17T14:01:24Z</time>
      </trkpt>
      <trkpt lat="43.51008" lon="5.4476">
        <ele>131</ele>
        <time>2021-11-17T14:01:31Z</time>
      </trkpt>
      <trkpt lat="43.51" lon="5.44783">
        <ele>131</ele>
        <time>2021-11-17T14:01:49Z</time>
      </trkpt>
      <trkpt lat="43.51002" lon="5.44823">
        <ele>132</ele>
        <time>2021-11-17T14:02:19Z</time>
      </trkpt>
      <trkpt lat="43.51012" lon="5.44847">
        <ele>132</ele>
        <time>2021-11-17T14:02:34Z</time>
      </trkpt>
      <trkpt lat="43.51027" lon="5.44867">
        <ele>132</ele>
        <time>2021-11-17T14:02:50Z</time>
      </trkpt>
      <trkpt lat="43.51043" lon="5.44882">
        <ele>133</ele>
        <time>2021-11-17T14:03:09Z</time>
      </trkpt>
      <trkpt lat="43.51049" lon="5.44891">
        <ele>133</ele>
        <time>2021-11-17T14:03:20Z</time>
      </trkpt>
      <trkpt lat="43.51067" lon="5.44903">
        <ele>134</ele>
        <time>2021-11-17T14:03:38Z</time>
      </trkpt>
      <trkpt lat="43.51081" lon="5.4492">
        <ele>134</ele>
        <time>2021-11-17T14:03:55Z</time>
      </trkpt>
      <trkpt lat="43.51098" lon="5.44934">
        <ele>134</ele>
        <time>2021-11-17T14:04:11Z</time>
      </trkpt>
      <trkpt lat="43.51114" lon="5.44949">
        <ele>135</ele>
        <time>2021-11-17T14:04:32Z</time>
      </trkpt>
      <trkpt lat="43.51125" lon="5.44971">
        <ele>135</ele>
        <time>2021-11-17T14:04:49Z</time>
      </trkpt>
      <trkpt lat="43.51137" lon="5.44992">
        <ele>136</ele>
        <time>2021-11-17T14:05:03Z</time>
      </trkpt>
      <trkpt lat="43.51143" lon="5.45003">
        <ele>136</ele>
        <time>2021-11-17T14:05:12Z</time>
      </trkpt>
      <trkpt lat="43.5115" lon="5.45041">
        <ele>136</ele>
        <time>2021-11-17T14:05:38Z</time>
      </trkpt>
      <trkpt lat="43.51151" lon="5.45068">
        <ele>136</ele>
        <time>2021-11-17T14:05:58Z</time>
      </trkpt>
      <trkpt lat="43.51152" lon="5.45092">
        <ele>136</ele>
        <time>2021-11-17T14:06:15Z</time>
      </trkpt>
      <trkpt lat="43.51155" lon="5.4512">
        <ele>136</ele>
        <time>2021-11-17T14:06:30Z</time>
      </trkpt>
      <trkpt lat="43.51153" lon="5.45148">
        <ele>136</ele>
        <time>2021-11-17T14:06:45Z</time>
      </trkpt>
      <trkpt lat="43.51157" lon="5.45174">
        <ele>136</ele>
        <time>2021-11-17T14:06:58Z</time>
      </trkpt>
      <trkpt lat="43.51156" lon="5.45201">
        <ele>136</ele>
        <time>2021-11-17T14:07:13Z</time>
      </trkpt>
      <trkpt lat="43.5115" lon="5.45225">
        <ele>137</ele>
        <time>2021-11-17T14:07:32Z</time>
      </trkpt>
      <trkpt lat="43.5114" lon="5.45222">
        <ele>135</ele>
        <time>2021-11-17T14:07:46Z</time>
      </trkpt>
      <trkpt lat="43.51132" lon="5.45214">
        <ele>135</ele>
        <time>2021-11-17T14:07:55Z</time>
      </trkpt>
      <trkpt lat="43.51123" lon="5.45215">
        <ele>136</ele>
        <time>2021-11-17T14:08:08Z</time>
      </trkpt>
      <trkpt lat="43.5111" lon="5.45237">
        <ele>136</ele>
        <time>2021-11-17T14:08:28Z</time>
      </trkpt>
      <trkpt lat="43.51099" lon="5.45258">
        <ele>135</ele>
        <time>2021-11-17T14:08:48Z</time>
      </trkpt>
      <trkpt lat="43.51087" lon="5.45277">
        <ele>135</ele>
        <time>2021-11-17T14:09:12Z</time>
      </trkpt>
      <trkpt lat="43.51072" lon="5.45296">
        <ele>135</ele>
        <time>2021-11-17T14:09:23Z</time>
      </trkpt>
      <trkpt lat="43.51058" lon="5.45314">
        <ele>136</ele>
        <time>2021-11-17T14:09:35Z</time>
      </trkpt>
      <trkpt lat="43.51041" lon="5.45328">
        <ele>137</ele>
        <time>2021-11-17T14:09:51Z</time>
      </trkpt>
      <trkpt lat="43.5102" lon="5.45352">
        <ele>137</ele>
        <time>2021-11-17T14:10:23Z</time>
      </trkpt>
      <trkpt lat="43.51011" lon="5.4536">
        <ele>138</ele>
        <time>2021-11-17T14:10:32Z</time>
      </trkpt>
      <trkpt lat="43.51007" lon="5.45372">
        <ele>138</ele>
        <time>2021-11-17T14:10:45Z</time>
      </trkpt>
      <trkpt lat="43.50991" lon="5.45404">
        <ele>138</ele>
        <time>2021-11-17T14:11:05Z</time>
      </trkpt>
      <trkpt lat="43.50985" lon="5.45413">
        <ele>140</ele>
        <time>2021-11-17T14:11:12Z</time>
      </trkpt>
      <trkpt lat="43.50981" lon="5.45438">
        <ele>142</ele>
        <time>2021-11-17T14:11:33Z</time>
      </trkpt>
      <trkpt lat="43.50982" lon="5.45466">
        <ele>142</ele>
        <time>2021-11-17T14:11:48Z</time>
      </trkpt>
      <trkpt lat="43.50988" lon="5.4549">
        <ele>139</ele>
        <time>2021-11-17T14:12:08Z</time>
      </trkpt>
      <trkpt lat="43.50992" lon="5.45502">
        <ele>138</ele>
        <time>2021-11-17T14:12:17Z</time>
      </trkpt>
      <trkpt lat="43.50989" lon="5.45527">
        <ele>138</ele>
        <time>2021-11-17T14:12:37Z</time>
      </trkpt>
      <trkpt lat="43.50987" lon="5.45553">
        <ele>138</ele>
        <time>2021-11-17T14:12:55Z</time>
      </trkpt>
      <trkpt lat="43.50986" lon="5.45566">
        <ele>138</ele>
        <time>2021-11-17T14:13:05Z</time>
      </trkpt>
      <trkpt lat="43.50994" lon="5.45589">
        <ele>137</ele>
        <time>2021-11-17T14:13:23Z</time>
      </trkpt>
      <trkpt lat="43.50996" lon="5.45615">
        <ele>137</ele>
        <time>2021-11-17T14:13:43Z</time>
      </trkpt>
      <trkpt lat="43.50998" lon="5.45642">
        <ele>137</ele>
        <time>2021-11-17T14:13:57Z</time>
      </trkpt>
      <trkpt lat="43.51005" lon="5.45666">
        <ele>137</ele>
        <time>2021-11-17T14:14:14Z</time>
      </trkpt>
      <trkpt lat="43.5101" lon="5.45691">
        <ele>137</ele>
        <time>2021-11-17T14:14:30Z</time>
      </trkpt>
      <trkpt lat="43.51015" lon="5.45704">
        <ele>137</ele>
        <time>2021-11-17T14:14:38Z</time>
      </trkpt>
      <trkpt lat="43.51019" lon="5.45742">
        <ele>137</ele>
        <time>2021-11-17T14:15:03Z</time>
      </trkpt>
      <trkpt lat="43.51017" lon="5.45771">
        <ele>137</ele>
        <time>2021-11-17T14:15:20Z</time>
      </trkpt>
      <trkpt lat="43.51013" lon="5.45783">
        <ele>137</ele>
        <time>2021-11-17T14:15:26Z</time>
      </trkpt>
      <trkpt lat="43.51011" lon="5.4581">
        <ele>137</ele>
        <time>2021-11-17T14:15:44Z</time>
      </trkpt>
      <trkpt lat="43.51007" lon="5.45824">
        <ele>137</ele>
        <time>2021-11-17T14:15:51Z</time>
      </trkpt>
      <trkpt lat="43.51005" lon="5.45849">
        <ele>137</ele>
        <time>2021-11-17T14:16:07Z</time>
      </trkpt>
      <trkpt lat="43.51001" lon="5.45875">
        <ele>137</ele>
        <time>2021-11-17T14:16:27Z</time>
      </trkpt>
      <trkpt lat="43.50996" lon="5.45885">
        <ele>137</ele>
        <time>2021-11-17T14:16:35Z</time>
      </trkpt>
      <trkpt lat="43.50992" lon="5.45897">
        <ele>137</ele>
        <time>2021-11-17T14:16:56Z</time>
      </trkpt>
      <trkpt lat="43.50983" lon="5.45921">
        <ele>137</ele>
        <time>2021-11-17T14:17:11Z</time>
      </trkpt>
      <trkpt lat="43.50976" lon="5.45931">
        <ele>137</ele>
        <time>2021-11-17T14:17:18Z</time>
      </trkpt>
      <trkpt lat="43.50968" lon="5.45958">
        <ele>138</ele>
        <time>2021-11-17T14:17:33Z</time>
      </trkpt>
      <trkpt lat="43.50962" lon="5.45968">
        <ele>138</ele>
        <time>2021-11-17T14:17:40Z</time>
      </trkpt>
      <trkpt lat="43.5095" lon="5.45989">
        <ele>137</ele>
        <time>2021-11-17T14:17:59Z</time>
      </trkpt>
      <trkpt lat="43.50943" lon="5.45999">
        <ele>137</ele>
        <time>2021-11-17T14:18:06Z</time>
      </trkpt>
      <trkpt lat="43.50931" lon="5.46017">
        <ele>137</ele>
        <time>2021-11-17T14:18:34Z</time>
      </trkpt>
      <trkpt lat="43.50921" lon="5.4604">
        <ele>137</ele>
        <time>2021-11-17T14:18:50Z</time>
      </trkpt>
      <trkpt lat="43.50911" lon="5.46061">
        <ele>137</ele>
        <time>2021-11-17T14:19:06Z</time>
      </trkpt>
      <trkpt lat="43.50894" lon="5.46073">
        <ele>137</ele>
        <time>2021-11-17T14:19:18Z</time>
      </trkpt>
      <trkpt lat="43.50885" lon="5.46078">
        <ele>137</ele>
        <time>2021-11-17T14:19:25Z</time>
      </trkpt>
      <trkpt lat="43.50867" lon="5.46079">
        <ele>137</ele>
        <time>2021-11-17T14:19:43Z</time>
      </trkpt>
      <trkpt lat="43.50838" lon="5.46076">
        <ele>139</ele>
        <time>2021-11-17T14:20:13Z</time>
      </trkpt>
      <trkpt lat="43.5083" lon="5.4608">
        <ele>139</ele>
        <time>2021-11-17T14:20:27Z</time>
      </trkpt>
      <trkpt lat="43.50813" lon="5.46112">
        <ele>138</ele>
        <time>2021-11-17T14:20:49Z</time>
      </trkpt>
      <trkpt lat="43.50811" lon="5.46125">
        <ele>138</ele>
        <time>2021-11-17T14:20:57Z</time>
      </trkpt>
      <trkpt lat="43.50817" lon="5.46135">
        <ele>137</ele>
        <time>2021-11-17T14:21:05Z</time>
      </trkpt>
      <trkpt lat="43.5081" lon="5.46143">
        <ele>137</ele>
        <time>2021-11-17T14:21:24Z</time>
      </trkpt>
      <trkpt lat="43.50803" lon="5.46153">
        <ele>137</ele>
        <time>2021-11-17T14:21:37Z</time>
      </trkpt>
      <trkpt lat="43.5079" lon="5.46173">
        <ele>137</ele>
        <time>2021-11-17T14:21:49Z</time>
      </trkpt>
      <trkpt lat="43.50789" lon="5.46187">
        <ele>137</ele>
        <time>2021-11-17T14:21:56Z</time>
      </trkpt>
      <trkpt lat="43.50778" lon="5.4621">
        <ele>136</ele>
        <time>2021-11-17T14:22:12Z</time>
      </trkpt>
      <trkpt lat="43.50771" lon="5.46218">
        <ele>136</ele>
        <time>2021-11-17T14:22:19Z</time>
      </trkpt>
      <trkpt lat="43.50762" lon="5.4624">
        <ele>137</ele>
        <time>2021-11-17T14:22:38Z</time>
      </trkpt>
      <trkpt lat="43.50751" lon="5.46264">
        <ele>137</ele>
        <time>2021-11-17T14:22:57Z</time>
      </trkpt>
      <trkpt lat="43.50735" lon="5.4628">
        <ele>137</ele>
        <time>2021-11-17T14:23:12Z</time>
      </trkpt>
      <trkpt lat="43.5072" lon="5.46295">
        <ele>137</ele>
        <time>2021-11-17T14:23:29Z</time>
      </trkpt>
      <trkpt lat="43.50709" lon="5.46318">
        <ele>137</ele>
        <time>2021-11-17T14:23:46Z</time>
      </trkpt>
      <trkpt lat="43.50704" lon="5.46344">
        <ele>137</ele>
        <time>2021-11-17T14:24:03Z</time>
      </trkpt>
      <trkpt lat="43.50703" lon="5.46356">
        <ele>138</ele>
        <time>2021-11-17T14:24:18Z</time>
      </trkpt>
      <trkpt lat="43.50698" lon="5.46383">
        <ele>138</ele>
        <time>2021-11-17T14:24:32Z</time>
      </trkpt>
      <trkpt lat="43.50693" lon="5.46408">
        <ele>139</ele>
        <time>2021-11-17T14:24:51Z</time>
      </trkpt>
      <trkpt lat="43.50691" lon="5.4642">
        <ele>139</ele>
        <time>2021-11-17T14:24:58Z</time>
      </trkpt>
      <trkpt lat="43.5069" lon="5.46434">
        <ele>139</ele>
        <time>2021-11-17T14:25:11Z</time>
      </trkpt>
      <trkpt lat="43.50685" lon="5.46459">
        <ele>139</ele>
        <time>2021-11-17T14:25:27Z</time>
      </trkpt>
      <trkpt lat="43.50684" lon="5.46473">
        <ele>139</ele>
        <time>2021-11-17T14:25:36Z</time>
      </trkpt>
      <trkpt lat="43.50684" lon="5.46486">
        <ele>139</ele>
        <time>2021-11-17T14:25:57Z</time>
      </trkpt>
      <trkpt lat="43.50682" lon="5.46514">
        <ele>139</ele>
        <time>2021-11-17T14:26:12Z</time>
      </trkpt>
      <trkpt lat="43.50681" lon="5.46527">
        <ele>139</ele>
        <time>2021-11-17T14:26:22Z</time>
      </trkpt>
      <trkpt lat="43.50684" lon="5.46553">
        <ele>139</ele>
        <time>2021-11-17T14:26:38Z</time>
      </trkpt>
      <trkpt lat="43.50688" lon="5.46579">
        <ele>139</ele>
        <time>2021-11-17T14:26:59Z</time>
      </trkpt>
      <trkpt lat="43.50693" lon="5.46604">
        <ele>139</ele>
        <time>2021-11-17T14:27:24Z</time>
      </trkpt>
      <trkpt lat="43.50696" lon="5.4663">
        <ele>139</ele>
        <time>2021-11-17T14:27:46Z</time>
      </trkpt>
      <trkpt lat="43.50693" lon="5.46641">
        <ele>139</ele>
        <time>2021-11-17T14:27:58Z</time>
      </trkpt>
      <trkpt lat="43.50694" lon="5.46667">
        <ele>139</ele>
        <time>2021-11-17T14:28:19Z</time>
      </trkpt>
      <trkpt lat="43.50695" lon="5.46695">
        <ele>139</ele>
        <time>2021-11-17T14:28:36Z</time>
      </trkpt>
      <trkpt lat="43.50703" lon="5.46717">
        <ele>139</ele>
        <time>2021-11-17T14:28:51Z</time>
      </trkpt>
      <trkpt lat="43.50708" lon="5.4673">
        <ele>139</ele>
        <time>2021-11-17T14:28:59Z</time>
      </trkpt>
      <trkpt lat="43.5071" lon="5.46742">
        <ele>138</ele>
        <time>2021-11-17T14:29:10Z</time>
      </trkpt>
      <trkpt lat="43.50712" lon="5.46756">
        <ele>138</ele>
        <time>2021-11-17T14:29:17Z</time>
      </trkpt>
      <trkpt lat="43.50724" lon="5.46777">
        <ele>139</ele>
        <time>2021-11-17T14:29:32Z</time>
      </trkpt>
      <trkpt lat="43.50736" lon="5.46797">
        <ele>139</ele>
        <time>2021-11-17T14:29:52Z</time>
      </trkpt>
      <trkpt lat="43.5075" lon="5.46817">
        <ele>139</ele>
        <time>2021-11-17T14:30:07Z</time>
      </trkpt>
      <trkpt lat="43.50756" lon="5.46827">
        <ele>139</ele>
        <time>2021-11-17T14:30:16Z</time>
      </trkpt>
      <trkpt lat="43.50765" lon="5.46823">
        <ele>139</ele>
        <time>2021-11-17T14:30:26Z</time>
      </trkpt>
      <trkpt lat="43.50771" lon="5.46812">
        <ele>139</ele>
        <time>2021-11-17T14:30:36Z</time>
      </trkpt>
      <trkpt lat="43.50796" lon="5.46794">
        <ele>140</ele>
        <time>2021-11-17T14:31:09Z</time>
      </trkpt>
      <trkpt lat="43.50806" lon="5.46798">
        <ele>140</ele>
        <time>2021-11-17T14:31:19Z</time>
      </trkpt>
      <trkpt lat="43.50815" lon="5.46795">
        <ele>140</ele>
        <time>2021-11-17T14:31:26Z</time>
      </trkpt>
      <trkpt lat="43.50833" lon="5.46787">
        <ele>141</ele>
        <time>2021-11-17T14:31:44Z</time>
      </trkpt>
      <trkpt lat="43.50842" lon="5.46788">
        <ele>141</ele>
        <time>2021-11-17T14:31:50Z</time>
      </trkpt>
      <trkpt lat="43.5085" lon="5.4678">
        <ele>141</ele>
        <time>2021-11-17T14:31:57Z</time>
      </trkpt>
      <trkpt lat="43.50855" lon="5.46769">
        <ele>141</ele>
        <time>2021-11-17T14:32:06Z</time>
      </trkpt>
      <trkpt lat="43.50873" lon="5.46762">
        <ele>141</ele>
        <time>2021-11-17T14:32:22Z</time>
      </trkpt>
      <trkpt lat="43.50881" lon="5.46756">
        <ele>142</ele>
        <time>2021-11-17T14:32:31Z</time>
      </trkpt>
      <trkpt lat="43.50883" lon="5.46744">
        <ele>142</ele>
        <time>2021-11-17T14:32:40Z</time>
      </trkpt>
      <trkpt lat="43.50883" lon="5.46716">
        <ele>142</ele>
        <time>2021-11-17T14:32:55Z</time>
      </trkpt>
      <trkpt lat="43.50877" lon="5.46691">
        <ele>142</ele>
        <time>2021-11-17T14:33:14Z</time>
      </trkpt>
      <trkpt lat="43.50871" lon="5.46653">
        <ele>141</ele>
        <time>2021-11-17T14:33:43Z</time>
      </trkpt>
      <trkpt lat="43.50871" lon="5.46626">
        <ele>141</ele>
        <time>2021-11-17T14:34:01Z</time>
      </trkpt>
      <trkpt lat="43.50872" lon="5.46614">
        <ele>142</ele>
        <time>2021-11-17T14:34:11Z</time>
      </trkpt>
      <trkpt lat="43.50874" lon="5.46604">
        <ele>142</ele>
        <time>2021-11-17T14:34:47Z</time>
      </trkpt>
      <trkpt lat="43.50875" lon="5.46604">
        <ele>142</ele>
        <time>2021-11-17T14:35:13Z</time>
      </trkpt>
      <trkpt lat="43.50875" lon="5.46604">
        <ele>142</ele>
        <time>2021-11-17T14:35:13Z</time>
      </trkpt>
      <trkpt lat="43.50875" lon="5.46604">
        <ele>142</ele>
        <time>2021-11-17T14:35:13Z</time>
      </trkpt>
    </trkseg>
  </trk>
</gpx>